<?xml version="1.0" encoding="UTF-8" standalone="no" ?>
<gpx xmlns="http://www.topografix.com/GPX/1/1" xmlns:xsi="http://www.w3.org/2001/XMLSchema-instance" xsi:schemaLocation="http://www.topografix.com/GPX/1/1 http://www.topografix.com/GPX/1/1/gpx.xsd" version="1.1" creator="VisuGPX - https://www.visugpx.com">
  <metadata>
    <name>TG19 27 KMS</name>
    <desc><![CDATA[                                                                                    ]]></desc>
  </metadata>
  <trk>
    <name><![CDATA[TG19 27 KMS_1]]></name>
    <trkseg>
      <trkpt lat="46.7284" lon="-0.16527">
        <ele>123.8</ele>
        <time>2019-02-17T20:59:22.000Z</time>
      </trkpt>
      <trkpt lat="46.72895" lon="-0.16516">
        <ele>123</ele>
        <time>2019-02-17T20:59:23.113Z</time>
      </trkpt>
      <trkpt lat="46.72975" lon="-0.16558">
        <ele>123</ele>
        <time>2019-02-17T20:59:24.827Z</time>
      </trkpt>
      <trkpt lat="46.72995" lon="-0.16577">
        <ele>123</ele>
        <time>2019-02-17T20:59:25.303Z</time>
      </trkpt>
      <trkpt lat="46.72995" lon="-0.16577">
        <ele>123</ele>
        <time>2019-02-17T20:59:25.303Z</time>
      </trkpt>
      <trkpt lat="46.72996" lon="-0.16577">
        <ele>122.9</ele>
        <time>2019-02-17T20:59:25.325Z</time>
      </trkpt>
      <trkpt lat="46.72997" lon="-0.1656">
        <ele>122.3</ele>
        <time>2019-02-17T20:59:25.559Z</time>
      </trkpt>
      <trkpt lat="46.72993" lon="-0.16526">
        <ele>121.2</ele>
        <time>2019-02-17T20:59:26.033Z</time>
      </trkpt>
      <trkpt lat="46.72989" lon="-0.165">
        <ele>120.4</ele>
        <time>2019-02-17T20:59:26.399Z</time>
      </trkpt>
      <trkpt lat="46.72989" lon="-0.16481">
        <ele>119.7</ele>
        <time>2019-02-17T20:59:26.660Z</time>
      </trkpt>
      <trkpt lat="46.7299" lon="-0.16445">
        <ele>118</ele>
        <time>2019-02-17T20:59:27.155Z</time>
      </trkpt>
      <trkpt lat="46.72986" lon="-0.16411">
        <ele>116.3</ele>
        <time>2019-02-17T20:59:27.629Z</time>
      </trkpt>
      <trkpt lat="46.7297" lon="-0.16349">
        <ele>113.6</ele>
        <time>2019-02-17T20:59:28.539Z</time>
      </trkpt>
      <trkpt lat="46.72965" lon="-0.1632">
        <ele>112.8</ele>
        <time>2019-02-17T20:59:28.950Z</time>
      </trkpt>
      <trkpt lat="46.72956" lon="-0.16264">
        <ele>111.3</ele>
        <time>2019-02-17T20:59:29.740Z</time>
      </trkpt>
      <trkpt lat="46.72945" lon="-0.16216">
        <ele>110.7</ele>
        <time>2019-02-17T20:59:30.435Z</time>
      </trkpt>
      <trkpt lat="46.72933" lon="-0.16154">
        <ele>109.4</ele>
        <time>2019-02-17T20:59:31.320Z</time>
      </trkpt>
      <trkpt lat="46.72923" lon="-0.16048">
        <ele>108.5</ele>
        <time>2019-02-17T20:59:32.790Z</time>
      </trkpt>
      <trkpt lat="46.72922" lon="-0.15978">
        <ele>107</ele>
        <time>2019-02-17T20:59:33.752Z</time>
      </trkpt>
      <trkpt lat="46.72922" lon="-0.15914">
        <ele>105.8</ele>
        <time>2019-02-17T20:59:34.631Z</time>
      </trkpt>
      <trkpt lat="46.72915" lon="-0.15867">
        <ele>105.3</ele>
        <time>2019-02-17T20:59:35.292Z</time>
      </trkpt>
      <trkpt lat="46.7291" lon="-0.15847">
        <ele>105.2</ele>
        <time>2019-02-17T20:59:35.584Z</time>
      </trkpt>
      <trkpt lat="46.72906" lon="-0.1584">
        <ele>105.4</ele>
        <time>2019-02-17T20:59:35.709Z</time>
      </trkpt>
      <trkpt lat="46.72894" lon="-0.15833">
        <ele>105.8</ele>
        <time>2019-02-17T20:59:35.968Z</time>
      </trkpt>
      <trkpt lat="46.72894" lon="-0.15835">
        <ele>105.8</ele>
        <time>2019-02-17T20:59:35.995Z</time>
      </trkpt>
      <trkpt lat="46.72892" lon="-0.15837">
        <ele>105.9</ele>
        <time>2019-02-17T20:59:36.044Z</time>
      </trkpt>
      <trkpt lat="46.7289" lon="-0.15838">
        <ele>106</ele>
        <time>2019-02-17T20:59:36.086Z</time>
      </trkpt>
      <trkpt lat="46.72885" lon="-0.15837">
        <ele>106.1</ele>
        <time>2019-02-17T20:59:36.187Z</time>
      </trkpt>
      <trkpt lat="46.72883" lon="-0.15831">
        <ele>106.1</ele>
        <time>2019-02-17T20:59:36.279Z</time>
      </trkpt>
      <trkpt lat="46.72884" lon="-0.15825">
        <ele>105.9</ele>
        <time>2019-02-17T20:59:36.364Z</time>
      </trkpt>
      <trkpt lat="46.72888" lon="-0.15822">
        <ele>105.6</ele>
        <time>2019-02-17T20:59:36.454Z</time>
      </trkpt>
      <trkpt lat="46.72892" lon="-0.15804">
        <ele>104.7</ele>
        <time>2019-02-17T20:59:36.714Z</time>
      </trkpt>
      <trkpt lat="46.72904" lon="-0.15748">
        <ele>101</ele>
        <time>2019-02-17T20:59:37.520Z</time>
      </trkpt>
      <trkpt lat="46.72921" lon="-0.15688">
        <ele>98.3</ele>
        <time>2019-02-17T20:59:38.412Z</time>
      </trkpt>
      <trkpt lat="46.72924" lon="-0.15678">
        <ele>97.6</ele>
        <time>2019-02-17T20:59:38.562Z</time>
      </trkpt>
      <trkpt lat="46.72933" lon="-0.15684">
        <ele>97.5</ele>
        <time>2019-02-17T20:59:38.760Z</time>
      </trkpt>
      <trkpt lat="46.72945" lon="-0.15689">
        <ele>97</ele>
        <time>2019-02-17T20:59:39.010Z</time>
      </trkpt>
      <trkpt lat="46.72948" lon="-0.15685">
        <ele>96.8</ele>
        <time>2019-02-17T20:59:39.091Z</time>
      </trkpt>
      <trkpt lat="46.72959" lon="-0.15659">
        <ele>95.7</ele>
        <time>2019-02-17T20:59:39.511Z</time>
      </trkpt>
      <trkpt lat="46.72964" lon="-0.15649">
        <ele>94.7</ele>
        <time>2019-02-17T20:59:39.681Z</time>
      </trkpt>
      <trkpt lat="46.73008" lon="-0.15593">
        <ele>94</ele>
        <time>2019-02-17T20:59:40.851Z</time>
      </trkpt>
      <trkpt lat="46.73019" lon="-0.15578">
        <ele>94.7</ele>
        <time>2019-02-17T20:59:41.153Z</time>
      </trkpt>
      <trkpt lat="46.73045" lon="-0.15517">
        <ele>95.8</ele>
        <time>2019-02-17T20:59:42.140Z</time>
      </trkpt>
      <trkpt lat="46.73066" lon="-0.15464">
        <ele>96.8</ele>
        <time>2019-02-17T20:59:42.981Z</time>
      </trkpt>
      <trkpt lat="46.73097" lon="-0.15404">
        <ele>101.4</ele>
        <time>2019-02-17T20:59:44.013Z</time>
      </trkpt>
      <trkpt lat="46.73108" lon="-0.1538">
        <ele>102.9</ele>
        <time>2019-02-17T20:59:44.410Z</time>
      </trkpt>
      <trkpt lat="46.73112" lon="-0.15371">
        <ele>103.3</ele>
        <time>2019-02-17T20:59:44.557Z</time>
      </trkpt>
      <trkpt lat="46.73114" lon="-0.15371">
        <ele>103.4</ele>
        <time>2019-02-17T20:59:44.597Z</time>
      </trkpt>
      <trkpt lat="46.73121" lon="-0.15373">
        <ele>103.3</ele>
        <time>2019-02-17T20:59:44.740Z</time>
      </trkpt>
      <trkpt lat="46.73127" lon="-0.15371">
        <ele>103.7</ele>
        <time>2019-02-17T20:59:44.863Z</time>
      </trkpt>
      <trkpt lat="46.73134" lon="-0.15368">
        <ele>104.1</ele>
        <time>2019-02-17T20:59:45.009Z</time>
      </trkpt>
      <trkpt lat="46.73137" lon="-0.15366">
        <ele>104.4</ele>
        <time>2019-02-17T20:59:45.075Z</time>
      </trkpt>
      <trkpt lat="46.73138" lon="-0.15362">
        <ele>104.9</ele>
        <time>2019-02-17T20:59:45.133Z</time>
      </trkpt>
      <trkpt lat="46.73144" lon="-0.15346">
        <ele>106.1</ele>
        <time>2019-02-17T20:59:45.384Z</time>
      </trkpt>
      <trkpt lat="46.73165" lon="-0.15288">
        <ele>110.2</ele>
        <time>2019-02-17T20:59:46.285Z</time>
      </trkpt>
      <trkpt lat="46.73194" lon="-0.15199">
        <ele>113.9</ele>
        <time>2019-02-17T20:59:47.639Z</time>
      </trkpt>
      <trkpt lat="46.7323" lon="-0.15112">
        <ele>117.7</ele>
        <time>2019-02-17T20:59:49.035Z</time>
      </trkpt>
      <trkpt lat="46.7328" lon="-0.14994">
        <ele>122.7</ele>
        <time>2019-02-17T20:59:50.940Z</time>
      </trkpt>
      <trkpt lat="46.73287" lon="-0.1498">
        <ele>124.1</ele>
        <time>2019-02-17T20:59:51.181Z</time>
      </trkpt>
      <trkpt lat="46.73287" lon="-0.14979">
        <ele>124.1</ele>
        <time>2019-02-17T20:59:51.190Z</time>
      </trkpt>
      <trkpt lat="46.73302" lon="-0.1495">
        <ele>125.6</ele>
        <time>2019-02-17T20:59:51.689Z</time>
      </trkpt>
      <trkpt lat="46.73312" lon="-0.14936">
        <ele>126.8</ele>
        <time>2019-02-17T20:59:51.967Z</time>
      </trkpt>
      <trkpt lat="46.73326" lon="-0.14926">
        <ele>128.1</ele>
        <time>2019-02-17T20:59:52.279Z</time>
      </trkpt>
      <trkpt lat="46.7334" lon="-0.14918">
        <ele>128.9</ele>
        <time>2019-02-17T20:59:52.580Z</time>
      </trkpt>
      <trkpt lat="46.73351" lon="-0.14913">
        <ele>129.3</ele>
        <time>2019-02-17T20:59:52.811Z</time>
      </trkpt>
      <trkpt lat="46.73375" lon="-0.14891">
        <ele>130.4</ele>
        <time>2019-02-17T20:59:53.379Z</time>
      </trkpt>
      <trkpt lat="46.7342" lon="-0.14832">
        <ele>132.2</ele>
        <time>2019-02-17T20:59:54.591Z</time>
      </trkpt>
      <trkpt lat="46.73463" lon="-0.14761">
        <ele>137.4</ele>
        <time>2019-02-17T20:59:55.892Z</time>
      </trkpt>
      <trkpt lat="46.7351" lon="-0.14701">
        <ele>140.7</ele>
        <time>2019-02-17T20:59:57.143Z</time>
      </trkpt>
      <trkpt lat="46.73538" lon="-0.14656">
        <ele>143.7</ele>
        <time>2019-02-17T20:59:57.978Z</time>
      </trkpt>
      <trkpt lat="46.73558" lon="-0.1462">
        <ele>145.4</ele>
        <time>2019-02-17T20:59:58.614Z</time>
      </trkpt>
      <trkpt lat="46.7359" lon="-0.14558">
        <ele>148.6</ele>
        <time>2019-02-17T20:59:59.680Z</time>
      </trkpt>
      <trkpt lat="46.73683" lon="-0.14381">
        <ele>150.7</ele>
        <time>2019-02-17T21:00:02.743Z</time>
      </trkpt>
      <trkpt lat="46.73718" lon="-0.14312">
        <ele>153.8</ele>
        <time>2019-02-17T21:00:03.922Z</time>
      </trkpt>
      <trkpt lat="46.73744" lon="-0.14254">
        <ele>156.9</ele>
        <time>2019-02-17T21:00:04.874Z</time>
      </trkpt>
      <trkpt lat="46.73758" lon="-0.14217">
        <ele>158.3</ele>
        <time>2019-02-17T21:00:05.454Z</time>
      </trkpt>
      <trkpt lat="46.73778" lon="-0.14178">
        <ele>159.6</ele>
        <time>2019-02-17T21:00:06.123Z</time>
      </trkpt>
      <trkpt lat="46.73819" lon="-0.14114">
        <ele>160.5</ele>
        <time>2019-02-17T21:00:07.326Z</time>
      </trkpt>
      <trkpt lat="46.73834" lon="-0.14097">
        <ele>160.5</ele>
        <time>2019-02-17T21:00:07.707Z</time>
      </trkpt>
      <trkpt lat="46.73815" lon="-0.1409">
        <ele>160.9</ele>
        <time>2019-02-17T21:00:08.095Z</time>
      </trkpt>
      <trkpt lat="46.73815" lon="-0.14089">
        <ele>160.9</ele>
        <time>2019-02-17T21:00:08.105Z</time>
      </trkpt>
      <trkpt lat="46.73834" lon="-0.14097">
        <ele>160.5</ele>
        <time>2019-02-17T21:00:08.501Z</time>
      </trkpt>
      <trkpt lat="46.73844" lon="-0.14082">
        <ele>160.6</ele>
        <time>2019-02-17T21:00:08.788Z</time>
      </trkpt>
      <trkpt lat="46.73893" lon="-0.14001">
        <ele>161</ele>
        <time>2019-02-17T21:00:10.272Z</time>
      </trkpt>
      <trkpt lat="46.73906" lon="-0.13982">
        <ele>161</ele>
        <time>2019-02-17T21:00:10.641Z</time>
      </trkpt>
      <trkpt lat="46.73932" lon="-0.13958">
        <ele>161</ele>
        <time>2019-02-17T21:00:11.258Z</time>
      </trkpt>
      <trkpt lat="46.74004" lon="-0.13881">
        <ele>161</ele>
        <time>2019-02-17T21:00:13.047Z</time>
      </trkpt>
      <trkpt lat="46.74042" lon="-0.13839">
        <ele>160.6</ele>
        <time>2019-02-17T21:00:14.002Z</time>
      </trkpt>
      <trkpt lat="46.74095" lon="-0.13784">
        <ele>160.2</ele>
        <time>2019-02-17T21:00:15.305Z</time>
      </trkpt>
      <trkpt lat="46.74116" lon="-0.13757">
        <ele>160.2</ele>
        <time>2019-02-17T21:00:15.866Z</time>
      </trkpt>
      <trkpt lat="46.74131" lon="-0.13742">
        <ele>160.5</ele>
        <time>2019-02-17T21:00:16.230Z</time>
      </trkpt>
      <trkpt lat="46.74168" lon="-0.13709">
        <ele>161</ele>
        <time>2019-02-17T21:00:17.099Z</time>
      </trkpt>
      <trkpt lat="46.74173" lon="-0.13712">
        <ele>161</ele>
        <time>2019-02-17T21:00:17.207Z</time>
      </trkpt>
      <trkpt lat="46.74183" lon="-0.13689">
        <ele>160.9</ele>
        <time>2019-02-17T21:00:17.581Z</time>
      </trkpt>
      <trkpt lat="46.74234" lon="-0.13618">
        <ele>160.1</ele>
        <time>2019-02-17T21:00:18.993Z</time>
      </trkpt>
      <trkpt lat="46.74283" lon="-0.1355">
        <ele>160</ele>
        <time>2019-02-17T21:00:20.348Z</time>
      </trkpt>
      <trkpt lat="46.74358" lon="-0.13449">
        <ele>159</ele>
        <time>2019-02-17T21:00:22.393Z</time>
      </trkpt>
      <trkpt lat="46.74388" lon="-0.13416">
        <ele>158.9</ele>
        <time>2019-02-17T21:00:23.146Z</time>
      </trkpt>
      <trkpt lat="46.74426" lon="-0.13355">
        <ele>157.8</ele>
        <time>2019-02-17T21:00:24.278Z</time>
      </trkpt>
      <trkpt lat="46.74468" lon="-0.13294">
        <ele>156.6</ele>
        <time>2019-02-17T21:00:25.465Z</time>
      </trkpt>
      <trkpt lat="46.74472" lon="-0.13282">
        <ele>156.2</ele>
        <time>2019-02-17T21:00:25.648Z</time>
      </trkpt>
      <trkpt lat="46.74473" lon="-0.13272">
        <ele>155.8</ele>
        <time>2019-02-17T21:00:25.787Z</time>
      </trkpt>
      <trkpt lat="46.74455" lon="-0.13138">
        <ele>152.3</ele>
        <time>2019-02-17T21:00:27.662Z</time>
      </trkpt>
      <trkpt lat="46.74459" lon="-0.13088">
        <ele>149.8</ele>
        <time>2019-02-17T21:00:28.353Z</time>
      </trkpt>
      <trkpt lat="46.74463" lon="-0.13064">
        <ele>148.3</ele>
        <time>2019-02-17T21:00:28.692Z</time>
      </trkpt>
      <trkpt lat="46.74468" lon="-0.13031">
        <ele>146.1</ele>
        <time>2019-02-17T21:00:29.156Z</time>
      </trkpt>
      <trkpt lat="46.74458" lon="-0.13031">
        <ele>145.7</ele>
        <time>2019-02-17T21:00:29.356Z</time>
      </trkpt>
      <trkpt lat="46.74426" lon="-0.13031">
        <ele>144.6</ele>
        <time>2019-02-17T21:00:29.997Z</time>
      </trkpt>
      <trkpt lat="46.74381" lon="-0.13047">
        <ele>143.5</ele>
        <time>2019-02-17T21:00:30.925Z</time>
      </trkpt>
      <trkpt lat="46.74363" lon="-0.13045">
        <ele>143.6</ele>
        <time>2019-02-17T21:00:31.287Z</time>
      </trkpt>
      <trkpt lat="46.74347" lon="-0.1304">
        <ele>145</ele>
        <time>2019-02-17T21:00:31.615Z</time>
      </trkpt>
      <trkpt lat="46.74329" lon="-0.1303">
        <ele>146.4</ele>
        <time>2019-02-17T21:00:32.001Z</time>
      </trkpt>
      <trkpt lat="46.74246" lon="-0.12962">
        <ele>146.4</ele>
        <time>2019-02-17T21:00:33.908Z</time>
      </trkpt>
      <trkpt lat="46.74203" lon="-0.12927">
        <ele>141.6</ele>
        <time>2019-02-17T21:00:34.895Z</time>
      </trkpt>
      <trkpt lat="46.7418" lon="-0.12912">
        <ele>139.3</ele>
        <time>2019-02-17T21:00:35.400Z</time>
      </trkpt>
      <trkpt lat="46.74164" lon="-0.12953">
        <ele>140.3</ele>
        <time>2019-02-17T21:00:36.048Z</time>
      </trkpt>
      <trkpt lat="46.74155" lon="-0.12965">
        <ele>140.7</ele>
        <time>2019-02-17T21:00:36.292Z</time>
      </trkpt>
      <trkpt lat="46.74148" lon="-0.12968">
        <ele>140.8</ele>
        <time>2019-02-17T21:00:36.438Z</time>
      </trkpt>
      <trkpt lat="46.7414" lon="-0.12962">
        <ele>140.6</ele>
        <time>2019-02-17T21:00:36.618Z</time>
      </trkpt>
      <trkpt lat="46.74128" lon="-0.1295">
        <ele>141.1</ele>
        <time>2019-02-17T21:00:36.910Z</time>
      </trkpt>
      <trkpt lat="46.741" lon="-0.12912">
        <ele>142.4</ele>
        <time>2019-02-17T21:00:37.676Z</time>
      </trkpt>
      <trkpt lat="46.74072" lon="-0.12872">
        <ele>144</ele>
        <time>2019-02-17T21:00:38.461Z</time>
      </trkpt>
      <trkpt lat="46.74064" lon="-0.12866">
        <ele>144.4</ele>
        <time>2019-02-17T21:00:38.641Z</time>
      </trkpt>
      <trkpt lat="46.74056" lon="-0.12864">
        <ele>145.2</ele>
        <time>2019-02-17T21:00:38.804Z</time>
      </trkpt>
      <trkpt lat="46.74042" lon="-0.12863">
        <ele>145.6</ele>
        <time>2019-02-17T21:00:39.085Z</time>
      </trkpt>
      <trkpt lat="46.74013" lon="-0.1286">
        <ele>146.5</ele>
        <time>2019-02-17T21:00:39.668Z</time>
      </trkpt>
      <trkpt lat="46.74013" lon="-0.12863">
        <ele>146.6</ele>
        <time>2019-02-17T21:00:39.709Z</time>
      </trkpt>
      <trkpt lat="46.74013" lon="-0.1286">
        <ele>146.5</ele>
        <time>2019-02-17T21:00:39.750Z</time>
      </trkpt>
      <trkpt lat="46.74004" lon="-0.12837">
        <ele>146.7</ele>
        <time>2019-02-17T21:00:40.114Z</time>
      </trkpt>
      <trkpt lat="46.74004" lon="-0.12826">
        <ele>147</ele>
        <time>2019-02-17T21:00:40.265Z</time>
      </trkpt>
      <trkpt lat="46.74008" lon="-0.1281">
        <ele>147.3</ele>
        <time>2019-02-17T21:00:40.499Z</time>
      </trkpt>
      <trkpt lat="46.74015" lon="-0.12788">
        <ele>147.8</ele>
        <time>2019-02-17T21:00:40.832Z</time>
      </trkpt>
      <trkpt lat="46.74014" lon="-0.12782">
        <ele>148.3</ele>
        <time>2019-02-17T21:00:40.917Z</time>
      </trkpt>
      <trkpt lat="46.74043" lon="-0.12765">
        <ele>146.3</ele>
        <time>2019-02-17T21:00:41.543Z</time>
      </trkpt>
      <trkpt lat="46.74076" lon="-0.12743">
        <ele>145</ele>
        <time>2019-02-17T21:00:42.270Z</time>
      </trkpt>
      <trkpt lat="46.74095" lon="-0.12724">
        <ele>145</ele>
        <time>2019-02-17T21:00:42.732Z</time>
      </trkpt>
      <trkpt lat="46.74112" lon="-0.12703">
        <ele>145.3</ele>
        <time>2019-02-17T21:00:43.178Z</time>
      </trkpt>
      <trkpt lat="46.74134" lon="-0.12661">
        <ele>145.9</ele>
        <time>2019-02-17T21:00:43.904Z</time>
      </trkpt>
      <trkpt lat="46.74154" lon="-0.12624">
        <ele>146.4</ele>
        <time>2019-02-17T21:00:44.551Z</time>
      </trkpt>
      <trkpt lat="46.74159" lon="-0.12606">
        <ele>146.6</ele>
        <time>2019-02-17T21:00:44.818Z</time>
      </trkpt>
      <trkpt lat="46.74164" lon="-0.12577">
        <ele>146.2</ele>
        <time>2019-02-17T21:00:45.229Z</time>
      </trkpt>
      <trkpt lat="46.74165" lon="-0.12568">
        <ele>146.1</ele>
        <time>2019-02-17T21:00:45.354Z</time>
      </trkpt>
      <trkpt lat="46.74176" lon="-0.12477">
        <ele>144</ele>
        <time>2019-02-17T21:00:46.623Z</time>
      </trkpt>
      <trkpt lat="46.7419" lon="-0.12359">
        <ele>139.2</ele>
        <time>2019-02-17T21:00:48.268Z</time>
      </trkpt>
      <trkpt lat="46.74191" lon="-0.12338">
        <ele>138.3</ele>
        <time>2019-02-17T21:00:48.557Z</time>
      </trkpt>
      <trkpt lat="46.74189" lon="-0.12327">
        <ele>138</ele>
        <time>2019-02-17T21:00:48.713Z</time>
      </trkpt>
      <trkpt lat="46.74186" lon="-0.1232">
        <ele>137.8</ele>
        <time>2019-02-17T21:00:48.826Z</time>
      </trkpt>
      <trkpt lat="46.74135" lon="-0.12302">
        <ele>136.5</ele>
        <time>2019-02-17T21:00:49.877Z</time>
      </trkpt>
      <trkpt lat="46.74116" lon="-0.12299">
        <ele>135.9</ele>
        <time>2019-02-17T21:00:50.260Z</time>
      </trkpt>
      <trkpt lat="46.74088" lon="-0.123">
        <ele>135.5</ele>
        <time>2019-02-17T21:00:50.821Z</time>
      </trkpt>
      <trkpt lat="46.74075" lon="-0.12296">
        <ele>135.6</ele>
        <time>2019-02-17T21:00:51.087Z</time>
      </trkpt>
      <trkpt lat="46.74053" lon="-0.1228">
        <ele>135.4</ele>
        <time>2019-02-17T21:00:51.580Z</time>
      </trkpt>
      <trkpt lat="46.74047" lon="-0.12272">
        <ele>135.1</ele>
        <time>2019-02-17T21:00:51.743Z</time>
      </trkpt>
      <trkpt lat="46.74044" lon="-0.12265">
        <ele>134.6</ele>
        <time>2019-02-17T21:00:51.856Z</time>
      </trkpt>
      <trkpt lat="46.74049" lon="-0.12243">
        <ele>132.4</ele>
        <time>2019-02-17T21:00:52.174Z</time>
      </trkpt>
      <trkpt lat="46.74064" lon="-0.12206">
        <ele>130.5</ele>
        <time>2019-02-17T21:00:52.764Z</time>
      </trkpt>
      <trkpt lat="46.7407" lon="-0.12193">
        <ele>130.6</ele>
        <time>2019-02-17T21:00:52.979Z</time>
      </trkpt>
      <trkpt lat="46.74076" lon="-0.12186">
        <ele>131.3</ele>
        <time>2019-02-17T21:00:53.133Z</time>
      </trkpt>
      <trkpt lat="46.74088" lon="-0.12184">
        <ele>132</ele>
        <time>2019-02-17T21:00:53.375Z</time>
      </trkpt>
      <trkpt lat="46.74105" lon="-0.12181">
        <ele>133.1</ele>
        <time>2019-02-17T21:00:53.718Z</time>
      </trkpt>
      <trkpt lat="46.74136" lon="-0.12161">
        <ele>136</ele>
        <time>2019-02-17T21:00:54.397Z</time>
      </trkpt>
      <trkpt lat="46.74152" lon="-0.12147">
        <ele>138.2</ele>
        <time>2019-02-17T21:00:54.771Z</time>
      </trkpt>
      <trkpt lat="46.74166" lon="-0.1213">
        <ele>140.3</ele>
        <time>2019-02-17T21:00:55.136Z</time>
      </trkpt>
      <trkpt lat="46.74183" lon="-0.12105">
        <ele>143.8</ele>
        <time>2019-02-17T21:00:55.620Z</time>
      </trkpt>
      <trkpt lat="46.7419" lon="-0.12099">
        <ele>144.4</ele>
        <time>2019-02-17T21:00:55.783Z</time>
      </trkpt>
      <trkpt lat="46.74188" lon="-0.12078">
        <ele>146.8</ele>
        <time>2019-02-17T21:00:56.074Z</time>
      </trkpt>
      <trkpt lat="46.74187" lon="-0.12051">
        <ele>149.3</ele>
        <time>2019-02-17T21:00:56.445Z</time>
      </trkpt>
      <trkpt lat="46.74183" lon="-0.12043">
        <ele>149.9</ele>
        <time>2019-02-17T21:00:56.581Z</time>
      </trkpt>
      <trkpt lat="46.74177" lon="-0.12025">
        <ele>151.1</ele>
        <time>2019-02-17T21:00:56.856Z</time>
      </trkpt>
      <trkpt lat="46.74177" lon="-0.12025">
        <ele>151.1</ele>
        <time>2019-02-17T21:00:56.860Z</time>
      </trkpt>
      <trkpt lat="46.74177" lon="-0.12024">
        <ele>151.1</ele>
        <time>2019-02-17T21:00:56.870Z</time>
      </trkpt>
      <trkpt lat="46.74175" lon="-0.1199">
        <ele>152</ele>
        <time>2019-02-17T21:00:57.339Z</time>
      </trkpt>
      <trkpt lat="46.74177" lon="-0.11981">
        <ele>152</ele>
        <time>2019-02-17T21:00:57.469Z</time>
      </trkpt>
      <trkpt lat="46.74178" lon="-0.11974">
        <ele>152</ele>
        <time>2019-02-17T21:00:57.567Z</time>
      </trkpt>
      <trkpt lat="46.74182" lon="-0.11959">
        <ele>152.5</ele>
        <time>2019-02-17T21:00:57.788Z</time>
      </trkpt>
      <trkpt lat="46.74161" lon="-0.1195">
        <ele>152.8</ele>
        <time>2019-02-17T21:00:58.227Z</time>
      </trkpt>
      <trkpt lat="46.74117" lon="-0.11928">
        <ele>153</ele>
        <time>2019-02-17T21:00:59.159Z</time>
      </trkpt>
      <trkpt lat="46.74109" lon="-0.11923">
        <ele>153</ele>
        <time>2019-02-17T21:00:59.333Z</time>
      </trkpt>
      <trkpt lat="46.74055" lon="-0.11885">
        <ele>153</ele>
        <time>2019-02-17T21:01:00.534Z</time>
      </trkpt>
      <trkpt lat="46.74031" lon="-0.1187">
        <ele>152.7</ele>
        <time>2019-02-17T21:01:01.057Z</time>
      </trkpt>
      <trkpt lat="46.74009" lon="-0.1185">
        <ele>152.6</ele>
        <time>2019-02-17T21:01:01.576Z</time>
      </trkpt>
      <trkpt lat="46.73985" lon="-0.11823">
        <ele>152.5</ele>
        <time>2019-02-17T21:01:02.183Z</time>
      </trkpt>
      <trkpt lat="46.73971" lon="-0.11798">
        <ele>151.9</ele>
        <time>2019-02-17T21:01:02.621Z</time>
      </trkpt>
      <trkpt lat="46.73971" lon="-0.11798">
        <ele>151.9</ele>
        <time>2019-02-17T21:01:02.626Z</time>
      </trkpt>
      <trkpt lat="46.73963" lon="-0.11808">
        <ele>151.2</ele>
        <time>2019-02-17T21:01:02.846Z</time>
      </trkpt>
      <trkpt lat="46.73876" lon="-0.11864">
        <ele>135.4</ele>
        <time>2019-02-17T21:01:04.738Z</time>
      </trkpt>
      <trkpt lat="46.73866" lon="-0.11871">
        <ele>135.1</ele>
        <time>2019-02-17T21:01:04.964Z</time>
      </trkpt>
      <trkpt lat="46.73883" lon="-0.11815">
        <ele>137.9</ele>
        <time>2019-02-17T21:01:05.805Z</time>
      </trkpt>
      <trkpt lat="46.73896" lon="-0.11776">
        <ele>140.9</ele>
        <time>2019-02-17T21:01:06.401Z</time>
      </trkpt>
      <trkpt lat="46.73878" lon="-0.1177">
        <ele>140.1</ele>
        <time>2019-02-17T21:01:06.771Z</time>
      </trkpt>
      <trkpt lat="46.73865" lon="-0.1177">
        <ele>140.5</ele>
        <time>2019-02-17T21:01:07.032Z</time>
      </trkpt>
      <trkpt lat="46.73851" lon="-0.11773">
        <ele>140</ele>
        <time>2019-02-17T21:01:07.316Z</time>
      </trkpt>
      <trkpt lat="46.73814" lon="-0.11772">
        <ele>138.9</ele>
        <time>2019-02-17T21:01:08.058Z</time>
      </trkpt>
      <trkpt lat="46.738" lon="-0.11768">
        <ele>138.7</ele>
        <time>2019-02-17T21:01:08.344Z</time>
      </trkpt>
      <trkpt lat="46.73772" lon="-0.11751">
        <ele>138.3</ele>
        <time>2019-02-17T21:01:08.952Z</time>
      </trkpt>
      <trkpt lat="46.73748" lon="-0.1173">
        <ele>138</ele>
        <time>2019-02-17T21:01:09.513Z</time>
      </trkpt>
      <trkpt lat="46.73733" lon="-0.11713">
        <ele>138</ele>
        <time>2019-02-17T21:01:09.894Z</time>
      </trkpt>
      <trkpt lat="46.73698" lon="-0.11652">
        <ele>138.7</ele>
        <time>2019-02-17T21:01:10.987Z</time>
      </trkpt>
      <trkpt lat="46.7369" lon="-0.11637">
        <ele>139.8</ele>
        <time>2019-02-17T21:01:11.248Z</time>
      </trkpt>
      <trkpt lat="46.7368" lon="-0.11627">
        <ele>140.2</ele>
        <time>2019-02-17T21:01:11.491Z</time>
      </trkpt>
      <trkpt lat="46.73662" lon="-0.11611">
        <ele>140.7</ele>
        <time>2019-02-17T21:01:11.913Z</time>
      </trkpt>
      <trkpt lat="46.73639" lon="-0.11594">
        <ele>140.9</ele>
        <time>2019-02-17T21:01:12.430Z</time>
      </trkpt>
      <trkpt lat="46.73624" lon="-0.11585">
        <ele>141.3</ele>
        <time>2019-02-17T21:01:12.755Z</time>
      </trkpt>
      <trkpt lat="46.73608" lon="-0.1158">
        <ele>141.4</ele>
        <time>2019-02-17T21:01:13.083Z</time>
      </trkpt>
      <trkpt lat="46.73552" lon="-0.11569">
        <ele>140.4</ele>
        <time>2019-02-17T21:01:14.215Z</time>
      </trkpt>
      <trkpt lat="46.73519" lon="-0.11552">
        <ele>140.1</ele>
        <time>2019-02-17T21:01:14.916Z</time>
      </trkpt>
      <trkpt lat="46.73507" lon="-0.11546">
        <ele>140.3</ele>
        <time>2019-02-17T21:01:15.170Z</time>
      </trkpt>
      <trkpt lat="46.73479" lon="-0.11518">
        <ele>142.3</ele>
        <time>2019-02-17T21:01:15.850Z</time>
      </trkpt>
      <trkpt lat="46.73411" lon="-0.11432">
        <ele>145</ele>
        <time>2019-02-17T21:01:17.653Z</time>
      </trkpt>
      <trkpt lat="46.73384" lon="-0.114">
        <ele>144.4</ele>
        <time>2019-02-17T21:01:18.350Z</time>
      </trkpt>
      <trkpt lat="46.73359" lon="-0.11365">
        <ele>144.7</ele>
        <time>2019-02-17T21:01:19.044Z</time>
      </trkpt>
      <trkpt lat="46.73333" lon="-0.11321">
        <ele>143.4</ele>
        <time>2019-02-17T21:01:19.842Z</time>
      </trkpt>
      <trkpt lat="46.73312" lon="-0.11271">
        <ele>143.8</ele>
        <time>2019-02-17T21:01:20.647Z</time>
      </trkpt>
      <trkpt lat="46.73296" lon="-0.11209">
        <ele>145.3</ele>
        <time>2019-02-17T21:01:21.557Z</time>
      </trkpt>
      <trkpt lat="46.73277" lon="-0.11142">
        <ele>145</ele>
        <time>2019-02-17T21:01:22.546Z</time>
      </trkpt>
      <trkpt lat="46.73277" lon="-0.11141">
        <ele>145</ele>
        <time>2019-02-17T21:01:22.565Z</time>
      </trkpt>
      <trkpt lat="46.73275" lon="-0.11126">
        <ele>145</ele>
        <time>2019-02-17T21:01:22.775Z</time>
      </trkpt>
      <trkpt lat="46.73273" lon="-0.11111">
        <ele>145</ele>
        <time>2019-02-17T21:01:22.985Z</time>
      </trkpt>
      <trkpt lat="46.73273" lon="-0.11064">
        <ele>145</ele>
        <time>2019-02-17T21:01:23.631Z</time>
      </trkpt>
      <trkpt lat="46.73274" lon="-0.11033">
        <ele>145.8</ele>
        <time>2019-02-17T21:01:24.057Z</time>
      </trkpt>
      <trkpt lat="46.73278" lon="-0.10988">
        <ele>145.6</ele>
        <time>2019-02-17T21:01:24.680Z</time>
      </trkpt>
      <trkpt lat="46.73278" lon="-0.10939">
        <ele>145</ele>
        <time>2019-02-17T21:01:25.353Z</time>
      </trkpt>
      <trkpt lat="46.73274" lon="-0.10911">
        <ele>145.3</ele>
        <time>2019-02-17T21:01:25.746Z</time>
      </trkpt>
      <trkpt lat="46.73267" lon="-0.10889">
        <ele>145.8</ele>
        <time>2019-02-17T21:01:26.079Z</time>
      </trkpt>
      <trkpt lat="46.7325" lon="-0.10852">
        <ele>147</ele>
        <time>2019-02-17T21:01:26.691Z</time>
      </trkpt>
      <trkpt lat="46.73211" lon="-0.10735">
        <ele>149.1</ele>
        <time>2019-02-17T21:01:28.478Z</time>
      </trkpt>
      <trkpt lat="46.73198" lon="-0.10697">
        <ele>149.7</ele>
        <time>2019-02-17T21:01:29.061Z</time>
      </trkpt>
      <trkpt lat="46.73179" lon="-0.10628">
        <ele>149.6</ele>
        <time>2019-02-17T21:01:30.082Z</time>
      </trkpt>
      <trkpt lat="46.7317" lon="-0.10605">
        <ele>149.9</ele>
        <time>2019-02-17T21:01:30.446Z</time>
      </trkpt>
      <trkpt lat="46.73156" lon="-0.10582">
        <ele>150</ele>
        <time>2019-02-17T21:01:30.869Z</time>
      </trkpt>
      <trkpt lat="46.7314" lon="-0.1056">
        <ele>150.8</ele>
        <time>2019-02-17T21:01:31.310Z</time>
      </trkpt>
      <trkpt lat="46.73132" lon="-0.10545">
        <ele>151.4</ele>
        <time>2019-02-17T21:01:31.571Z</time>
      </trkpt>
      <trkpt lat="46.73125" lon="-0.10526">
        <ele>152</ele>
        <time>2019-02-17T21:01:31.867Z</time>
      </trkpt>
      <trkpt lat="46.73093" lon="-0.1042">
        <ele>152.7</ele>
        <time>2019-02-17T21:01:33.458Z</time>
      </trkpt>
      <trkpt lat="46.73084" lon="-0.10391">
        <ele>153</ele>
        <time>2019-02-17T21:01:33.890Z</time>
      </trkpt>
      <trkpt lat="46.73079" lon="-0.10374">
        <ele>152.5</ele>
        <time>2019-02-17T21:01:34.149Z</time>
      </trkpt>
      <trkpt lat="46.73076" lon="-0.10359">
        <ele>152.3</ele>
        <time>2019-02-17T21:01:34.364Z</time>
      </trkpt>
      <trkpt lat="46.73075" lon="-0.10336">
        <ele>152.3</ele>
        <time>2019-02-17T21:01:34.681Z</time>
      </trkpt>
      <trkpt lat="46.73081" lon="-0.10294">
        <ele>151.1</ele>
        <time>2019-02-17T21:01:35.270Z</time>
      </trkpt>
      <trkpt lat="46.73101" lon="-0.10222">
        <ele>150.4</ele>
        <time>2019-02-17T21:01:36.337Z</time>
      </trkpt>
      <trkpt lat="46.73138" lon="-0.1013">
        <ele>153.3</ele>
        <time>2019-02-17T21:01:37.802Z</time>
      </trkpt>
      <trkpt lat="46.73158" lon="-0.10082">
        <ele>154</ele>
        <time>2019-02-17T21:01:38.574Z</time>
      </trkpt>
      <trkpt lat="46.73151" lon="-0.10076">
        <ele>154.3</ele>
        <time>2019-02-17T21:01:38.737Z</time>
      </trkpt>
      <trkpt lat="46.73114" lon="-0.10034">
        <ele>155.8</ele>
        <time>2019-02-17T21:01:39.676Z</time>
      </trkpt>
      <trkpt lat="46.73078" lon="-0.09995">
        <ele>156</ele>
        <time>2019-02-17T21:01:40.575Z</time>
      </trkpt>
      <trkpt lat="46.73032" lon="-0.09955">
        <ele>156.6</ele>
        <time>2019-02-17T21:01:41.648Z</time>
      </trkpt>
      <trkpt lat="46.7302" lon="-0.09947">
        <ele>156.9</ele>
        <time>2019-02-17T21:01:41.912Z</time>
      </trkpt>
      <trkpt lat="46.73007" lon="-0.09944">
        <ele>157</ele>
        <time>2019-02-17T21:01:42.176Z</time>
      </trkpt>
      <trkpt lat="46.73" lon="-0.09944">
        <ele>157</ele>
        <time>2019-02-17T21:01:42.316Z</time>
      </trkpt>
      <trkpt lat="46.72966" lon="-0.09955">
        <ele>156</ele>
        <time>2019-02-17T21:01:43.014Z</time>
      </trkpt>
      <trkpt lat="46.72959" lon="-0.09957">
        <ele>156</ele>
        <time>2019-02-17T21:01:43.157Z</time>
      </trkpt>
      <trkpt lat="46.72955" lon="-0.09953">
        <ele>156</ele>
        <time>2019-02-17T21:01:43.254Z</time>
      </trkpt>
      <trkpt lat="46.7295" lon="-0.09946">
        <ele>156</ele>
        <time>2019-02-17T21:01:43.393Z</time>
      </trkpt>
      <trkpt lat="46.72946" lon="-0.09937">
        <ele>156</ele>
        <time>2019-02-17T21:01:43.540Z</time>
      </trkpt>
      <trkpt lat="46.7295" lon="-0.09916">
        <ele>156.2</ele>
        <time>2019-02-17T21:01:43.839Z</time>
      </trkpt>
      <trkpt lat="46.72958" lon="-0.09864">
        <ele>157.4</ele>
        <time>2019-02-17T21:01:44.571Z</time>
      </trkpt>
      <trkpt lat="46.7296" lon="-0.09842">
        <ele>157.9</ele>
        <time>2019-02-17T21:01:44.876Z</time>
      </trkpt>
      <trkpt lat="46.72959" lon="-0.09822">
        <ele>158</ele>
        <time>2019-02-17T21:01:45.151Z</time>
      </trkpt>
      <trkpt lat="46.72956" lon="-0.09795">
        <ele>158.2</ele>
        <time>2019-02-17T21:01:45.527Z</time>
      </trkpt>
      <trkpt lat="46.72956" lon="-0.0978">
        <ele>158.4</ele>
        <time>2019-02-17T21:01:45.733Z</time>
      </trkpt>
      <trkpt lat="46.72965" lon="-0.09749">
        <ele>158.7</ele>
        <time>2019-02-17T21:01:46.195Z</time>
      </trkpt>
      <trkpt lat="46.72976" lon="-0.09729">
        <ele>159</ele>
        <time>2019-02-17T21:01:46.547Z</time>
      </trkpt>
      <trkpt lat="46.72997" lon="-0.09695">
        <ele>159</ele>
        <time>2019-02-17T21:01:47.176Z</time>
      </trkpt>
      <trkpt lat="46.73004" lon="-0.09672">
        <ele>159.1</ele>
        <time>2019-02-17T21:01:47.522Z</time>
      </trkpt>
      <trkpt lat="46.73017" lon="-0.09608">
        <ele>159.7</ele>
        <time>2019-02-17T21:01:48.439Z</time>
      </trkpt>
      <trkpt lat="46.73031" lon="-0.0956">
        <ele>160</ele>
        <time>2019-02-17T21:01:49.156Z</time>
      </trkpt>
      <trkpt lat="46.73065" lon="-0.09481">
        <ele>160</ele>
        <time>2019-02-17T21:01:50.437Z</time>
      </trkpt>
      <trkpt lat="46.73083" lon="-0.09454">
        <ele>160</ele>
        <time>2019-02-17T21:01:50.954Z</time>
      </trkpt>
      <trkpt lat="46.73102" lon="-0.09435">
        <ele>160</ele>
        <time>2019-02-17T21:01:51.416Z</time>
      </trkpt>
      <trkpt lat="46.73142" lon="-0.09402">
        <ele>159.9</ele>
        <time>2019-02-17T21:01:52.337Z</time>
      </trkpt>
      <trkpt lat="46.73172" lon="-0.0938">
        <ele>160</ele>
        <time>2019-02-17T21:01:53.010Z</time>
      </trkpt>
      <trkpt lat="46.73184" lon="-0.09367">
        <ele>160</ele>
        <time>2019-02-17T21:01:53.310Z</time>
      </trkpt>
      <trkpt lat="46.732" lon="-0.09338">
        <ele>160</ele>
        <time>2019-02-17T21:01:53.821Z</time>
      </trkpt>
      <trkpt lat="46.73223" lon="-0.09299">
        <ele>160</ele>
        <time>2019-02-17T21:01:54.527Z</time>
      </trkpt>
      <trkpt lat="46.73226" lon="-0.09294">
        <ele>160</ele>
        <time>2019-02-17T21:01:54.619Z</time>
      </trkpt>
      <trkpt lat="46.73231" lon="-0.09287">
        <ele>160</ele>
        <time>2019-02-17T21:01:54.758Z</time>
      </trkpt>
      <trkpt lat="46.73257" lon="-0.09244">
        <ele>160</ele>
        <time>2019-02-17T21:01:55.546Z</time>
      </trkpt>
      <trkpt lat="46.73271" lon="-0.09213">
        <ele>160</ele>
        <time>2019-02-17T21:01:56.056Z</time>
      </trkpt>
      <trkpt lat="46.7328" lon="-0.09177">
        <ele>160</ele>
        <time>2019-02-17T21:01:56.582Z</time>
      </trkpt>
      <trkpt lat="46.7328" lon="-0.09152">
        <ele>160</ele>
        <time>2019-02-17T21:01:56.925Z</time>
      </trkpt>
      <trkpt lat="46.73277" lon="-0.09087">
        <ele>160</ele>
        <time>2019-02-17T21:01:57.820Z</time>
      </trkpt>
      <trkpt lat="46.73272" lon="-0.08966">
        <ele>159</ele>
        <time>2019-02-17T21:01:59.485Z</time>
      </trkpt>
      <trkpt lat="46.73272" lon="-0.08925">
        <ele>159</ele>
        <time>2019-02-17T21:02:00.048Z</time>
      </trkpt>
      <trkpt lat="46.73274" lon="-0.08899">
        <ele>159</ele>
        <time>2019-02-17T21:02:00.407Z</time>
      </trkpt>
      <trkpt lat="46.7327" lon="-0.08877">
        <ele>158.7</ele>
        <time>2019-02-17T21:02:00.720Z</time>
      </trkpt>
      <trkpt lat="46.73267" lon="-0.08846">
        <ele>158.2</ele>
        <time>2019-02-17T21:02:01.150Z</time>
      </trkpt>
      <trkpt lat="46.73268" lon="-0.0881">
        <ele>158</ele>
        <time>2019-02-17T21:02:01.645Z</time>
      </trkpt>
      <trkpt lat="46.73272" lon="-0.08761">
        <ele>157</ele>
        <time>2019-02-17T21:02:02.323Z</time>
      </trkpt>
      <trkpt lat="46.73271" lon="-0.08747">
        <ele>157</ele>
        <time>2019-02-17T21:02:02.516Z</time>
      </trkpt>
      <trkpt lat="46.73266" lon="-0.0874">
        <ele>157</ele>
        <time>2019-02-17T21:02:02.655Z</time>
      </trkpt>
      <trkpt lat="46.73264" lon="-0.08737">
        <ele>157</ele>
        <time>2019-02-17T21:02:02.712Z</time>
      </trkpt>
      <trkpt lat="46.73264" lon="-0.08728">
        <ele>157</ele>
        <time>2019-02-17T21:02:02.836Z</time>
      </trkpt>
      <trkpt lat="46.73262" lon="-0.08717">
        <ele>156.8</ele>
        <time>2019-02-17T21:02:02.992Z</time>
      </trkpt>
      <trkpt lat="46.73229" lon="-0.08609">
        <ele>154.9</ele>
        <time>2019-02-17T21:02:04.616Z</time>
      </trkpt>
      <trkpt lat="46.73204" lon="-0.08552">
        <ele>153.9</ele>
        <time>2019-02-17T21:02:05.545Z</time>
      </trkpt>
      <trkpt lat="46.73198" lon="-0.08534">
        <ele>153.2</ele>
        <time>2019-02-17T21:02:05.820Z</time>
      </trkpt>
      <trkpt lat="46.732" lon="-0.08483">
        <ele>151.6</ele>
        <time>2019-02-17T21:02:06.522Z</time>
      </trkpt>
      <trkpt lat="46.73201" lon="-0.0847">
        <ele>151.2</ele>
        <time>2019-02-17T21:02:06.702Z</time>
      </trkpt>
      <trkpt lat="46.73202" lon="-0.08467">
        <ele>151.3</ele>
        <time>2019-02-17T21:02:06.751Z</time>
      </trkpt>
      <trkpt lat="46.73202" lon="-0.08467">
        <ele>151.3</ele>
        <time>2019-02-17T21:02:06.754Z</time>
      </trkpt>
      <trkpt lat="46.73201" lon="-0.08479">
        <ele>151.5</ele>
        <time>2019-02-17T21:02:06.920Z</time>
      </trkpt>
      <trkpt lat="46.73189" lon="-0.08448">
        <ele>150.6</ele>
        <time>2019-02-17T21:02:07.409Z</time>
      </trkpt>
      <trkpt lat="46.73182" lon="-0.08415">
        <ele>149.5</ele>
        <time>2019-02-17T21:02:07.883Z</time>
      </trkpt>
      <trkpt lat="46.73173" lon="-0.08364">
        <ele>146.6</ele>
        <time>2019-02-17T21:02:08.606Z</time>
      </trkpt>
      <trkpt lat="46.73168" lon="-0.08322">
        <ele>144.7</ele>
        <time>2019-02-17T21:02:09.192Z</time>
      </trkpt>
      <trkpt lat="46.73168" lon="-0.08296">
        <ele>144.1</ele>
        <time>2019-02-17T21:02:09.549Z</time>
      </trkpt>
      <trkpt lat="46.73172" lon="-0.08253">
        <ele>143.3</ele>
        <time>2019-02-17T21:02:10.145Z</time>
      </trkpt>
      <trkpt lat="46.73196" lon="-0.0819">
        <ele>141.9</ele>
        <time>2019-02-17T21:02:11.135Z</time>
      </trkpt>
      <trkpt lat="46.73211" lon="-0.08134">
        <ele>139.8</ele>
        <time>2019-02-17T21:02:11.961Z</time>
      </trkpt>
      <trkpt lat="46.73221" lon="-0.08116">
        <ele>139.2</ele>
        <time>2019-02-17T21:02:12.279Z</time>
      </trkpt>
      <trkpt lat="46.73271" lon="-0.08064">
        <ele>138.5</ele>
        <time>2019-02-17T21:02:13.509Z</time>
      </trkpt>
      <trkpt lat="46.73331" lon="-0.07975">
        <ele>137.2</ele>
        <time>2019-02-17T21:02:15.224Z</time>
      </trkpt>
      <trkpt lat="46.73355" lon="-0.0793">
        <ele>135.6</ele>
        <time>2019-02-17T21:02:16.007Z</time>
      </trkpt>
      <trkpt lat="46.73367" lon="-0.07917">
        <ele>135.2</ele>
        <time>2019-02-17T21:02:16.307Z</time>
      </trkpt>
      <trkpt lat="46.73408" lon="-0.07889">
        <ele>135</ele>
        <time>2019-02-17T21:02:17.214Z</time>
      </trkpt>
      <trkpt lat="46.73475" lon="-0.07838">
        <ele>134.4</ele>
        <time>2019-02-17T21:02:18.728Z</time>
      </trkpt>
      <trkpt lat="46.7352" lon="-0.07815">
        <ele>134.3</ele>
        <time>2019-02-17T21:02:19.683Z</time>
      </trkpt>
      <trkpt lat="46.73519" lon="-0.07802">
        <ele>133.7</ele>
        <time>2019-02-17T21:02:19.863Z</time>
      </trkpt>
      <trkpt lat="46.73517" lon="-0.07782">
        <ele>133.9</ele>
        <time>2019-02-17T21:02:20.141Z</time>
      </trkpt>
      <trkpt lat="46.73518" lon="-0.07777">
        <ele>134</ele>
        <time>2019-02-17T21:02:20.213Z</time>
      </trkpt>
      <trkpt lat="46.73522" lon="-0.07772">
        <ele>134</ele>
        <time>2019-02-17T21:02:20.319Z</time>
      </trkpt>
      <trkpt lat="46.73535" lon="-0.07765">
        <ele>133.9</ele>
        <time>2019-02-17T21:02:20.597Z</time>
      </trkpt>
      <trkpt lat="46.73567" lon="-0.07718">
        <ele>133.3</ele>
        <time>2019-02-17T21:02:21.507Z</time>
      </trkpt>
      <trkpt lat="46.73583" lon="-0.07697">
        <ele>132.9</ele>
        <time>2019-02-17T21:02:21.938Z</time>
      </trkpt>
      <trkpt lat="46.73601" lon="-0.07689">
        <ele>131.3</ele>
        <time>2019-02-17T21:02:22.315Z</time>
      </trkpt>
      <trkpt lat="46.73612" lon="-0.07681">
        <ele>130.5</ele>
        <time>2019-02-17T21:02:22.561Z</time>
      </trkpt>
      <trkpt lat="46.73647" lon="-0.07656">
        <ele>129</ele>
        <time>2019-02-17T21:02:23.342Z</time>
      </trkpt>
      <trkpt lat="46.73661" lon="-0.07648">
        <ele>128.3</ele>
        <time>2019-02-17T21:02:23.643Z</time>
      </trkpt>
      <trkpt lat="46.73674" lon="-0.07645">
        <ele>127.5</ele>
        <time>2019-02-17T21:02:23.907Z</time>
      </trkpt>
      <trkpt lat="46.73677" lon="-0.07644">
        <ele>127.3</ele>
        <time>2019-02-17T21:02:23.969Z</time>
      </trkpt>
      <trkpt lat="46.73702" lon="-0.07619">
        <ele>127</ele>
        <time>2019-02-17T21:02:24.576Z</time>
      </trkpt>
      <trkpt lat="46.7374" lon="-0.07568">
        <ele>125.6</ele>
        <time>2019-02-17T21:02:25.611Z</time>
      </trkpt>
      <trkpt lat="46.73771" lon="-0.07518">
        <ele>124.1</ele>
        <time>2019-02-17T21:02:26.537Z</time>
      </trkpt>
      <trkpt lat="46.7378" lon="-0.07491">
        <ele>124.5</ele>
        <time>2019-02-17T21:02:26.949Z</time>
      </trkpt>
      <trkpt lat="46.73785" lon="-0.07403">
        <ele>126.9</ele>
        <time>2019-02-17T21:02:28.162Z</time>
      </trkpt>
      <trkpt lat="46.73786" lon="-0.07392">
        <ele>126.5</ele>
        <time>2019-02-17T21:02:28.314Z</time>
      </trkpt>
      <trkpt lat="46.73782" lon="-0.07395">
        <ele>126.9</ele>
        <time>2019-02-17T21:02:28.404Z</time>
      </trkpt>
      <trkpt lat="46.73761" lon="-0.07408">
        <ele>128.3</ele>
        <time>2019-02-17T21:02:28.861Z</time>
      </trkpt>
      <trkpt lat="46.73749" lon="-0.0741">
        <ele>128.8</ele>
        <time>2019-02-17T21:02:29.103Z</time>
      </trkpt>
      <trkpt lat="46.73717" lon="-0.07445">
        <ele>131.2</ele>
        <time>2019-02-17T21:02:29.904Z</time>
      </trkpt>
      <trkpt lat="46.73683" lon="-0.07465">
        <ele>132.4</ele>
        <time>2019-02-17T21:02:30.639Z</time>
      </trkpt>
      <trkpt lat="46.73656" lon="-0.07474">
        <ele>133.4</ele>
        <time>2019-02-17T21:02:31.194Z</time>
      </trkpt>
      <trkpt lat="46.7362" lon="-0.07488">
        <ele>134.3</ele>
        <time>2019-02-17T21:02:31.941Z</time>
      </trkpt>
      <trkpt lat="46.7361" lon="-0.07499">
        <ele>134.9</ele>
        <time>2019-02-17T21:02:32.192Z</time>
      </trkpt>
      <trkpt lat="46.73592" lon="-0.07526">
        <ele>136.6</ele>
        <time>2019-02-17T21:02:32.709Z</time>
      </trkpt>
      <trkpt lat="46.7358" lon="-0.07542">
        <ele>137.6</ele>
        <time>2019-02-17T21:02:33.035Z</time>
      </trkpt>
      <trkpt lat="46.73571" lon="-0.07553">
        <ele>138.4</ele>
        <time>2019-02-17T21:02:33.270Z</time>
      </trkpt>
      <trkpt lat="46.73502" lon="-0.07612">
        <ele>141.9</ele>
        <time>2019-02-17T21:02:34.873Z</time>
      </trkpt>
      <trkpt lat="46.73465" lon="-0.07635">
        <ele>143.6</ele>
        <time>2019-02-17T21:02:35.679Z</time>
      </trkpt>
      <trkpt lat="46.73429" lon="-0.07657">
        <ele>144.9</ele>
        <time>2019-02-17T21:02:36.461Z</time>
      </trkpt>
      <trkpt lat="46.73407" lon="-0.07667">
        <ele>145.7</ele>
        <time>2019-02-17T21:02:36.923Z</time>
      </trkpt>
      <trkpt lat="46.73381" lon="-0.0768">
        <ele>146.8</ele>
        <time>2019-02-17T21:02:37.474Z</time>
      </trkpt>
      <trkpt lat="46.73342" lon="-0.07684">
        <ele>148.5</ele>
        <time>2019-02-17T21:02:38.257Z</time>
      </trkpt>
      <trkpt lat="46.73342" lon="-0.07684">
        <ele>148.5</ele>
        <time>2019-02-17T21:02:38.264Z</time>
      </trkpt>
      <trkpt lat="46.73337" lon="-0.07684">
        <ele>148.8</ele>
        <time>2019-02-17T21:02:38.361Z</time>
      </trkpt>
      <trkpt lat="46.73333" lon="-0.07693">
        <ele>149</ele>
        <time>2019-02-17T21:02:38.508Z</time>
      </trkpt>
      <trkpt lat="46.73277" lon="-0.07773">
        <ele>149.2</ele>
        <time>2019-02-17T21:02:40.073Z</time>
      </trkpt>
      <trkpt lat="46.73268" lon="-0.07785">
        <ele>149.1</ele>
        <time>2019-02-17T21:02:40.316Z</time>
      </trkpt>
      <trkpt lat="46.73218" lon="-0.07809">
        <ele>150.3</ele>
        <time>2019-02-17T21:02:41.376Z</time>
      </trkpt>
      <trkpt lat="46.73207" lon="-0.07815">
        <ele>150.9</ele>
        <time>2019-02-17T21:02:41.621Z</time>
      </trkpt>
      <trkpt lat="46.73165" lon="-0.07835">
        <ele>152</ele>
        <time>2019-02-17T21:02:42.494Z</time>
      </trkpt>
      <trkpt lat="46.73154" lon="-0.07841">
        <ele>152.2</ele>
        <time>2019-02-17T21:02:42.739Z</time>
      </trkpt>
      <trkpt lat="46.73113" lon="-0.07854">
        <ele>153</ele>
        <time>2019-02-17T21:02:43.581Z</time>
      </trkpt>
      <trkpt lat="46.73101" lon="-0.07858">
        <ele>153.4</ele>
        <time>2019-02-17T21:02:43.826Z</time>
      </trkpt>
      <trkpt lat="46.7308" lon="-0.07847">
        <ele>154.1</ele>
        <time>2019-02-17T21:02:44.271Z</time>
      </trkpt>
      <trkpt lat="46.73068" lon="-0.07841">
        <ele>154.4</ele>
        <time>2019-02-17T21:02:44.516Z</time>
      </trkpt>
      <trkpt lat="46.73027" lon="-0.07821">
        <ele>155</ele>
        <time>2019-02-17T21:02:45.389Z</time>
      </trkpt>
      <trkpt lat="46.73015" lon="-0.07815">
        <ele>155.3</ele>
        <time>2019-02-17T21:02:45.634Z</time>
      </trkpt>
      <trkpt lat="46.73021" lon="-0.07819">
        <ele>155.1</ele>
        <time>2019-02-17T21:02:45.759Z</time>
      </trkpt>
      <trkpt lat="46.73031" lon="-0.07776">
        <ele>155</ele>
        <time>2019-02-17T21:02:46.383Z</time>
      </trkpt>
      <trkpt lat="46.73041" lon="-0.07738">
        <ele>155</ele>
        <time>2019-02-17T21:02:46.942Z</time>
      </trkpt>
      <trkpt lat="46.73051" lon="-0.07718">
        <ele>155</ele>
        <time>2019-02-17T21:02:47.282Z</time>
      </trkpt>
      <trkpt lat="46.73056" lon="-0.07707">
        <ele>155</ele>
        <time>2019-02-17T21:02:47.463Z</time>
      </trkpt>
      <trkpt lat="46.73057" lon="-0.07698">
        <ele>155</ele>
        <time>2019-02-17T21:02:47.588Z</time>
      </trkpt>
      <trkpt lat="46.73055" lon="-0.07675">
        <ele>155</ele>
        <time>2019-02-17T21:02:47.906Z</time>
      </trkpt>
      <trkpt lat="46.73039" lon="-0.0762">
        <ele>155</ele>
        <time>2019-02-17T21:02:48.727Z</time>
      </trkpt>
      <trkpt lat="46.73023" lon="-0.07578">
        <ele>154.8</ele>
        <time>2019-02-17T21:02:49.387Z</time>
      </trkpt>
      <trkpt lat="46.73002" lon="-0.0754">
        <ele>154.4</ele>
        <time>2019-02-17T21:02:50.057Z</time>
      </trkpt>
      <trkpt lat="46.72969" lon="-0.07493">
        <ele>154</ele>
        <time>2019-02-17T21:02:50.981Z</time>
      </trkpt>
      <trkpt lat="46.72916" lon="-0.07429">
        <ele>153.4</ele>
        <time>2019-02-17T21:02:52.360Z</time>
      </trkpt>
      <trkpt lat="46.72898" lon="-0.0741">
        <ele>152.8</ele>
        <time>2019-02-17T21:02:52.805Z</time>
      </trkpt>
      <trkpt lat="46.72867" lon="-0.07383">
        <ele>151.8</ele>
        <time>2019-02-17T21:02:53.529Z</time>
      </trkpt>
      <trkpt lat="46.72849" lon="-0.07364">
        <ele>151.5</ele>
        <time>2019-02-17T21:02:53.974Z</time>
      </trkpt>
      <trkpt lat="46.72823" lon="-0.07326">
        <ele>151.7</ele>
        <time>2019-02-17T21:02:54.712Z</time>
      </trkpt>
      <trkpt lat="46.72797" lon="-0.07298">
        <ele>153</ele>
        <time>2019-02-17T21:02:55.360Z</time>
      </trkpt>
      <trkpt lat="46.72782" lon="-0.07289">
        <ele>153.3</ele>
        <time>2019-02-17T21:02:55.685Z</time>
      </trkpt>
      <trkpt lat="46.72773" lon="-0.07286">
        <ele>153.3</ele>
        <time>2019-02-17T21:02:55.870Z</time>
      </trkpt>
      <trkpt lat="46.72756" lon="-0.07286">
        <ele>153.3</ele>
        <time>2019-02-17T21:02:56.211Z</time>
      </trkpt>
      <trkpt lat="46.72734" lon="-0.07278">
        <ele>153.6</ele>
        <time>2019-02-17T21:02:56.665Z</time>
      </trkpt>
      <trkpt lat="46.72678" lon="-0.07253">
        <ele>153.7</ele>
        <time>2019-02-17T21:02:57.839Z</time>
      </trkpt>
      <trkpt lat="46.7267" lon="-0.07253">
        <ele>154</ele>
        <time>2019-02-17T21:02:57.999Z</time>
      </trkpt>
      <trkpt lat="46.72665" lon="-0.07229">
        <ele>154.1</ele>
        <time>2019-02-17T21:02:58.344Z</time>
      </trkpt>
      <trkpt lat="46.7262" lon="-0.0716">
        <ele>153.9</ele>
        <time>2019-02-17T21:02:59.652Z</time>
      </trkpt>
      <trkpt lat="46.72619" lon="-0.07155">
        <ele>153.9</ele>
        <time>2019-02-17T21:02:59.724Z</time>
      </trkpt>
      <trkpt lat="46.72609" lon="-0.07162">
        <ele>154.1</ele>
        <time>2019-02-17T21:02:59.946Z</time>
      </trkpt>
      <trkpt lat="46.7256" lon="-0.07187">
        <ele>156</ele>
        <time>2019-02-17T21:03:00.986Z</time>
      </trkpt>
      <trkpt lat="46.72523" lon="-0.07205">
        <ele>156.4</ele>
        <time>2019-02-17T21:03:01.768Z</time>
      </trkpt>
      <trkpt lat="46.7249" lon="-0.07211">
        <ele>156.7</ele>
        <time>2019-02-17T21:03:02.434Z</time>
      </trkpt>
      <trkpt lat="46.72476" lon="-0.0721">
        <ele>156.9</ele>
        <time>2019-02-17T21:03:02.715Z</time>
      </trkpt>
      <trkpt lat="46.7244" lon="-0.072">
        <ele>157</ele>
        <time>2019-02-17T21:03:03.449Z</time>
      </trkpt>
      <trkpt lat="46.72375" lon="-0.07178">
        <ele>157</ele>
        <time>2019-02-17T21:03:04.786Z</time>
      </trkpt>
      <trkpt lat="46.72342" lon="-0.07175">
        <ele>157.2</ele>
        <time>2019-02-17T21:03:05.449Z</time>
      </trkpt>
      <trkpt lat="46.72318" lon="-0.07173">
        <ele>157.2</ele>
        <time>2019-02-17T21:03:05.934Z</time>
      </trkpt>
      <trkpt lat="46.72316" lon="-0.07173">
        <ele>157.2</ele>
        <time>2019-02-17T21:03:05.970Z</time>
      </trkpt>
      <trkpt lat="46.72314" lon="-0.07172">
        <ele>157.2</ele>
        <time>2019-02-17T21:03:06.012Z</time>
      </trkpt>
      <trkpt lat="46.72312" lon="-0.07191">
        <ele>157.9</ele>
        <time>2019-02-17T21:03:06.276Z</time>
      </trkpt>
      <trkpt lat="46.72312" lon="-0.07192">
        <ele>157.9</ele>
        <time>2019-02-17T21:03:06.290Z</time>
      </trkpt>
      <trkpt lat="46.72309" lon="-0.07227">
        <ele>158</ele>
        <time>2019-02-17T21:03:06.775Z</time>
      </trkpt>
      <trkpt lat="46.72309" lon="-0.07255">
        <ele>158</ele>
        <time>2019-02-17T21:03:07.160Z</time>
      </trkpt>
      <trkpt lat="46.72313" lon="-0.07287">
        <ele>158</ele>
        <time>2019-02-17T21:03:07.607Z</time>
      </trkpt>
      <trkpt lat="46.72313" lon="-0.07303">
        <ele>158</ele>
        <time>2019-02-17T21:03:07.827Z</time>
      </trkpt>
      <trkpt lat="46.72316" lon="-0.07403">
        <ele>157.5</ele>
        <time>2019-02-17T21:03:09.202Z</time>
      </trkpt>
      <trkpt lat="46.72316" lon="-0.07418">
        <ele>157</ele>
        <time>2019-02-17T21:03:09.408Z</time>
      </trkpt>
      <trkpt lat="46.72325" lon="-0.07423">
        <ele>157</ele>
        <time>2019-02-17T21:03:09.601Z</time>
      </trkpt>
      <trkpt lat="46.72325" lon="-0.07434">
        <ele>157</ele>
        <time>2019-02-17T21:03:09.752Z</time>
      </trkpt>
      <trkpt lat="46.72354" lon="-0.07575">
        <ele>157</ele>
        <time>2019-02-17T21:03:11.774Z</time>
      </trkpt>
      <trkpt lat="46.72365" lon="-0.07604">
        <ele>157</ele>
        <time>2019-02-17T21:03:12.229Z</time>
      </trkpt>
      <trkpt lat="46.72399" lon="-0.07663">
        <ele>157.9</ele>
        <time>2019-02-17T21:03:13.288Z</time>
      </trkpt>
      <trkpt lat="46.72411" lon="-0.07682">
        <ele>158</ele>
        <time>2019-02-17T21:03:13.643Z</time>
      </trkpt>
      <trkpt lat="46.72418" lon="-0.07686">
        <ele>158</ele>
        <time>2019-02-17T21:03:13.794Z</time>
      </trkpt>
      <trkpt lat="46.72448" lon="-0.07679">
        <ele>158</ele>
        <time>2019-02-17T21:03:14.403Z</time>
      </trkpt>
      <trkpt lat="46.72479" lon="-0.07678">
        <ele>157.9</ele>
        <time>2019-02-17T21:03:15.024Z</time>
      </trkpt>
      <trkpt lat="46.72494" lon="-0.07682">
        <ele>157.6</ele>
        <time>2019-02-17T21:03:15.330Z</time>
      </trkpt>
      <trkpt lat="46.72533" lon="-0.07709">
        <ele>157</ele>
        <time>2019-02-17T21:03:16.195Z</time>
      </trkpt>
      <trkpt lat="46.72545" lon="-0.07726">
        <ele>156.9</ele>
        <time>2019-02-17T21:03:16.530Z</time>
      </trkpt>
      <trkpt lat="46.7255" lon="-0.07752">
        <ele>156.2</ele>
        <time>2019-02-17T21:03:16.901Z</time>
      </trkpt>
      <trkpt lat="46.72552" lon="-0.07833">
        <ele>157</ele>
        <time>2019-02-17T21:03:18.014Z</time>
      </trkpt>
      <trkpt lat="46.72559" lon="-0.07857">
        <ele>157.9</ele>
        <time>2019-02-17T21:03:18.372Z</time>
      </trkpt>
      <trkpt lat="46.72577" lon="-0.07901">
        <ele>158</ele>
        <time>2019-02-17T21:03:19.076Z</time>
      </trkpt>
      <trkpt lat="46.72558" lon="-0.07914">
        <ele>158</ele>
        <time>2019-02-17T21:03:19.497Z</time>
      </trkpt>
      <trkpt lat="46.7254" lon="-0.0793">
        <ele>158</ele>
        <time>2019-02-17T21:03:19.919Z</time>
      </trkpt>
      <trkpt lat="46.72514" lon="-0.07959">
        <ele>158</ele>
        <time>2019-02-17T21:03:20.575Z</time>
      </trkpt>
      <trkpt lat="46.72506" lon="-0.07972">
        <ele>158</ele>
        <time>2019-02-17T21:03:20.815Z</time>
      </trkpt>
      <trkpt lat="46.72503" lon="-0.07982">
        <ele>158</ele>
        <time>2019-02-17T21:03:20.973Z</time>
      </trkpt>
      <trkpt lat="46.72501" lon="-0.07987">
        <ele>158</ele>
        <time>2019-02-17T21:03:21.044Z</time>
      </trkpt>
      <trkpt lat="46.72495" lon="-0.08007">
        <ele>158</ele>
        <time>2019-02-17T21:03:21.344Z</time>
      </trkpt>
      <trkpt lat="46.72484" lon="-0.0804">
        <ele>158</ele>
        <time>2019-02-17T21:03:21.848Z</time>
      </trkpt>
      <trkpt lat="46.72468" lon="-0.08062">
        <ele>158</ele>
        <time>2019-02-17T21:03:22.289Z</time>
      </trkpt>
      <trkpt lat="46.72447" lon="-0.08083">
        <ele>158</ele>
        <time>2019-02-17T21:03:22.799Z</time>
      </trkpt>
      <trkpt lat="46.72424" lon="-0.08106">
        <ele>157</ele>
        <time>2019-02-17T21:03:23.358Z</time>
      </trkpt>
      <trkpt lat="46.72404" lon="-0.08109">
        <ele>157</ele>
        <time>2019-02-17T21:03:23.761Z</time>
      </trkpt>
      <trkpt lat="46.72373" lon="-0.08105">
        <ele>157</ele>
        <time>2019-02-17T21:03:24.385Z</time>
      </trkpt>
      <trkpt lat="46.72354" lon="-0.08098">
        <ele>157</ele>
        <time>2019-02-17T21:03:24.778Z</time>
      </trkpt>
      <trkpt lat="46.7234" lon="-0.0809">
        <ele>157</ele>
        <time>2019-02-17T21:03:25.079Z</time>
      </trkpt>
      <trkpt lat="46.72341" lon="-0.08093">
        <ele>157</ele>
        <time>2019-02-17T21:03:25.125Z</time>
      </trkpt>
      <trkpt lat="46.72346" lon="-0.08105">
        <ele>157</ele>
        <time>2019-02-17T21:03:25.318Z</time>
      </trkpt>
      <trkpt lat="46.72339" lon="-0.08123">
        <ele>157</ele>
        <time>2019-02-17T21:03:25.602Z</time>
      </trkpt>
      <trkpt lat="46.72309" lon="-0.08188">
        <ele>157</ele>
        <time>2019-02-17T21:03:26.682Z</time>
      </trkpt>
      <trkpt lat="46.72299" lon="-0.08209">
        <ele>157</ele>
        <time>2019-02-17T21:03:27.030Z</time>
      </trkpt>
      <trkpt lat="46.72233" lon="-0.08356">
        <ele>158</ele>
        <time>2019-02-17T21:03:29.444Z</time>
      </trkpt>
      <trkpt lat="46.722" lon="-0.08433">
        <ele>159</ele>
        <time>2019-02-17T21:03:30.692Z</time>
      </trkpt>
      <trkpt lat="46.72186" lon="-0.08472">
        <ele>159</ele>
        <time>2019-02-17T21:03:31.297Z</time>
      </trkpt>
      <trkpt lat="46.72172" lon="-0.08498">
        <ele>159</ele>
        <time>2019-02-17T21:03:31.751Z</time>
      </trkpt>
      <trkpt lat="46.7214" lon="-0.08542">
        <ele>159</ele>
        <time>2019-02-17T21:03:32.632Z</time>
      </trkpt>
      <trkpt lat="46.72112" lon="-0.08569">
        <ele>160</ele>
        <time>2019-02-17T21:03:33.305Z</time>
      </trkpt>
      <trkpt lat="46.72057" lon="-0.08599">
        <ele>160.9</ele>
        <time>2019-02-17T21:03:34.482Z</time>
      </trkpt>
      <trkpt lat="46.72028" lon="-0.08619">
        <ele>161</ele>
        <time>2019-02-17T21:03:35.125Z</time>
      </trkpt>
      <trkpt lat="46.71994" lon="-0.0865">
        <ele>162</ele>
        <time>2019-02-17T21:03:35.928Z</time>
      </trkpt>
      <trkpt lat="46.7195" lon="-0.08689">
        <ele>162.8</ele>
        <time>2019-02-17T21:03:36.960Z</time>
      </trkpt>
      <trkpt lat="46.71929" lon="-0.08708">
        <ele>163</ele>
        <time>2019-02-17T21:03:37.455Z</time>
      </trkpt>
      <trkpt lat="46.71932" lon="-0.08726">
        <ele>163</ele>
        <time>2019-02-17T21:03:37.709Z</time>
      </trkpt>
      <trkpt lat="46.71944" lon="-0.08799">
        <ele>163</ele>
        <time>2019-02-17T21:03:38.740Z</time>
      </trkpt>
      <trkpt lat="46.71959" lon="-0.08884">
        <ele>162.5</ele>
        <time>2019-02-17T21:03:39.946Z</time>
      </trkpt>
      <trkpt lat="46.71966" lon="-0.08928">
        <ele>162.1</ele>
        <time>2019-02-17T21:03:40.567Z</time>
      </trkpt>
      <trkpt lat="46.71973" lon="-0.08947">
        <ele>162</ele>
        <time>2019-02-17T21:03:40.863Z</time>
      </trkpt>
      <trkpt lat="46.72005" lon="-0.08994">
        <ele>162</ele>
        <time>2019-02-17T21:03:41.773Z</time>
      </trkpt>
      <trkpt lat="46.72039" lon="-0.09048">
        <ele>162</ele>
        <time>2019-02-17T21:03:42.780Z</time>
      </trkpt>
      <trkpt lat="46.72065" lon="-0.09091">
        <ele>162</ele>
        <time>2019-02-17T21:03:43.568Z</time>
      </trkpt>
      <trkpt lat="46.72073" lon="-0.09104">
        <ele>162</ele>
        <time>2019-02-17T21:03:43.808Z</time>
      </trkpt>
      <trkpt lat="46.72082" lon="-0.09111">
        <ele>162</ele>
        <time>2019-02-17T21:03:44.012Z</time>
      </trkpt>
      <trkpt lat="46.72098" lon="-0.09122">
        <ele>162</ele>
        <time>2019-02-17T21:03:44.366Z</time>
      </trkpt>
      <trkpt lat="46.72122" lon="-0.09133">
        <ele>162</ele>
        <time>2019-02-17T21:03:44.870Z</time>
      </trkpt>
      <trkpt lat="46.72155" lon="-0.09142">
        <ele>162</ele>
        <time>2019-02-17T21:03:45.543Z</time>
      </trkpt>
      <trkpt lat="46.72176" lon="-0.09156">
        <ele>162</ele>
        <time>2019-02-17T21:03:46.006Z</time>
      </trkpt>
      <trkpt lat="46.72206" lon="-0.09182">
        <ele>162</ele>
        <time>2019-02-17T21:03:46.705Z</time>
      </trkpt>
      <trkpt lat="46.72229" lon="-0.09207">
        <ele>162</ele>
        <time>2019-02-17T21:03:47.280Z</time>
      </trkpt>
      <trkpt lat="46.72237" lon="-0.09216">
        <ele>162</ele>
        <time>2019-02-17T21:03:47.482Z</time>
      </trkpt>
      <trkpt lat="46.72234" lon="-0.09219">
        <ele>162</ele>
        <time>2019-02-17T21:03:47.555Z</time>
      </trkpt>
      <trkpt lat="46.72197" lon="-0.0924">
        <ele>162</ele>
        <time>2019-02-17T21:03:48.351Z</time>
      </trkpt>
      <trkpt lat="46.72182" lon="-0.09253">
        <ele>162</ele>
        <time>2019-02-17T21:03:48.701Z</time>
      </trkpt>
      <trkpt lat="46.72159" lon="-0.09282">
        <ele>162.2</ele>
        <time>2019-02-17T21:03:49.310Z</time>
      </trkpt>
      <trkpt lat="46.72142" lon="-0.09317">
        <ele>163</ele>
        <time>2019-02-17T21:03:49.899Z</time>
      </trkpt>
      <trkpt lat="46.72104" lon="-0.09421">
        <ele>163</ele>
        <time>2019-02-17T21:03:51.518Z</time>
      </trkpt>
      <trkpt lat="46.7208" lon="-0.09473">
        <ele>162</ele>
        <time>2019-02-17T21:03:52.379Z</time>
      </trkpt>
      <trkpt lat="46.7207" lon="-0.09505">
        <ele>162</ele>
        <time>2019-02-17T21:03:52.862Z</time>
      </trkpt>
      <trkpt lat="46.72057" lon="-0.09561">
        <ele>161</ele>
        <time>2019-02-17T21:03:53.676Z</time>
      </trkpt>
      <trkpt lat="46.72054" lon="-0.09572">
        <ele>161</ele>
        <time>2019-02-17T21:03:53.837Z</time>
      </trkpt>
      <trkpt lat="46.7205" lon="-0.09587">
        <ele>161</ele>
        <time>2019-02-17T21:03:54.058Z</time>
      </trkpt>
      <trkpt lat="46.72042" lon="-0.09609">
        <ele>161</ele>
        <time>2019-02-17T21:03:54.400Z</time>
      </trkpt>
      <trkpt lat="46.72029" lon="-0.09629">
        <ele>160.4</ele>
        <time>2019-02-17T21:03:54.779Z</time>
      </trkpt>
      <trkpt lat="46.72005" lon="-0.09652">
        <ele>159.6</ele>
        <time>2019-02-17T21:03:55.354Z</time>
      </trkpt>
      <trkpt lat="46.71997" lon="-0.09666">
        <ele>159</ele>
        <time>2019-02-17T21:03:55.604Z</time>
      </trkpt>
      <trkpt lat="46.71985" lon="-0.09712">
        <ele>159</ele>
        <time>2019-02-17T21:03:56.280Z</time>
      </trkpt>
      <trkpt lat="46.71942" lon="-0.09822">
        <ele>158</ele>
        <time>2019-02-17T21:03:58.020Z</time>
      </trkpt>
      <trkpt lat="46.71937" lon="-0.09828">
        <ele>158</ele>
        <time>2019-02-17T21:03:58.150Z</time>
      </trkpt>
      <trkpt lat="46.71929" lon="-0.09832">
        <ele>158</ele>
        <time>2019-02-17T21:03:58.319Z</time>
      </trkpt>
      <trkpt lat="46.71931" lon="-0.09851">
        <ele>158.3</ele>
        <time>2019-02-17T21:03:58.583Z</time>
      </trkpt>
      <trkpt lat="46.71931" lon="-0.09863">
        <ele>158.5</ele>
        <time>2019-02-17T21:03:58.748Z</time>
      </trkpt>
      <trkpt lat="46.71923" lon="-0.09892">
        <ele>159</ele>
        <time>2019-02-17T21:03:59.177Z</time>
      </trkpt>
      <trkpt lat="46.71923" lon="-0.09901">
        <ele>159</ele>
        <time>2019-02-17T21:03:59.301Z</time>
      </trkpt>
      <trkpt lat="46.71928" lon="-0.09934">
        <ele>159</ele>
        <time>2019-02-17T21:03:59.765Z</time>
      </trkpt>
      <trkpt lat="46.71927" lon="-0.09936">
        <ele>159</ele>
        <time>2019-02-17T21:03:59.799Z</time>
      </trkpt>
      <trkpt lat="46.71923" lon="-0.0995">
        <ele>159</ele>
        <time>2019-02-17T21:04:00.007Z</time>
      </trkpt>
      <trkpt lat="46.71932" lon="-0.0995">
        <ele>159</ele>
        <time>2019-02-17T21:04:00.187Z</time>
      </trkpt>
      <trkpt lat="46.71918" lon="-0.09973">
        <ele>159</ele>
        <time>2019-02-17T21:04:00.610Z</time>
      </trkpt>
      <trkpt lat="46.71889" lon="-0.1002">
        <ele>159</ele>
        <time>2019-02-17T21:04:01.479Z</time>
      </trkpt>
      <trkpt lat="46.71832" lon="-0.10108">
        <ele>159</ele>
        <time>2019-02-17T21:04:03.142Z</time>
      </trkpt>
      <trkpt lat="46.71825" lon="-0.10119">
        <ele>159</ele>
        <time>2019-02-17T21:04:03.348Z</time>
      </trkpt>
      <trkpt lat="46.71789" lon="-0.10159">
        <ele>159</ele>
        <time>2019-02-17T21:04:04.255Z</time>
      </trkpt>
      <trkpt lat="46.71757" lon="-0.1019">
        <ele>159</ele>
        <time>2019-02-17T21:04:05.025Z</time>
      </trkpt>
      <trkpt lat="46.71728" lon="-0.10214">
        <ele>159</ele>
        <time>2019-02-17T21:04:05.693Z</time>
      </trkpt>
      <trkpt lat="46.71672" lon="-0.10251">
        <ele>159</ele>
        <time>2019-02-17T21:04:06.925Z</time>
      </trkpt>
      <trkpt lat="46.71639" lon="-0.10268">
        <ele>160</ele>
        <time>2019-02-17T21:04:07.626Z</time>
      </trkpt>
      <trkpt lat="46.71609" lon="-0.10326">
        <ele>160</ele>
        <time>2019-02-17T21:04:08.624Z</time>
      </trkpt>
      <trkpt lat="46.71569" lon="-0.10401">
        <ele>160</ele>
        <time>2019-02-17T21:04:09.930Z</time>
      </trkpt>
      <trkpt lat="46.71553" lon="-0.10435">
        <ele>160</ele>
        <time>2019-02-17T21:04:10.497Z</time>
      </trkpt>
      <trkpt lat="46.71531" lon="-0.1047">
        <ele>160</ele>
        <time>2019-02-17T21:04:11.149Z</time>
      </trkpt>
      <trkpt lat="46.71528" lon="-0.10475">
        <ele>160.1</ele>
        <time>2019-02-17T21:04:11.237Z</time>
      </trkpt>
      <trkpt lat="46.71515" lon="-0.10498">
        <ele>160.9</ele>
        <time>2019-02-17T21:04:11.650Z</time>
      </trkpt>
      <trkpt lat="46.71509" lon="-0.10507">
        <ele>161</ele>
        <time>2019-02-17T21:04:11.822Z</time>
      </trkpt>
      <trkpt lat="46.71501" lon="-0.10517">
        <ele>161</ele>
        <time>2019-02-17T21:04:12.033Z</time>
      </trkpt>
      <trkpt lat="46.71487" lon="-0.1057">
        <ele>161</ele>
        <time>2019-02-17T21:04:12.813Z</time>
      </trkpt>
      <trkpt lat="46.71469" lon="-0.10634">
        <ele>161</ele>
        <time>2019-02-17T21:04:13.763Z</time>
      </trkpt>
      <trkpt lat="46.71449" lon="-0.10712">
        <ele>161</ele>
        <time>2019-02-17T21:04:14.907Z</time>
      </trkpt>
      <trkpt lat="46.71415" lon="-0.1085">
        <ele>162</ele>
        <time>2019-02-17T21:04:16.922Z</time>
      </trkpt>
      <trkpt lat="46.71411" lon="-0.10881">
        <ele>162</ele>
        <time>2019-02-17T21:04:17.355Z</time>
      </trkpt>
      <trkpt lat="46.71412" lon="-0.10904">
        <ele>162</ele>
        <time>2019-02-17T21:04:17.672Z</time>
      </trkpt>
      <trkpt lat="46.71423" lon="-0.10953">
        <ele>162</ele>
        <time>2019-02-17T21:04:18.380Z</time>
      </trkpt>
      <trkpt lat="46.71451" lon="-0.11034">
        <ele>163</ele>
        <time>2019-02-17T21:04:19.626Z</time>
      </trkpt>
      <trkpt lat="46.71541" lon="-0.11246">
        <ele>164</ele>
        <time>2019-02-17T21:04:23.052Z</time>
      </trkpt>
      <trkpt lat="46.71553" lon="-0.11284">
        <ele>164.2</ele>
        <time>2019-02-17T21:04:23.627Z</time>
      </trkpt>
      <trkpt lat="46.71564" lon="-0.11378">
        <ele>165</ele>
        <time>2019-02-17T21:04:24.937Z</time>
      </trkpt>
      <trkpt lat="46.71579" lon="-0.11497">
        <ele>165</ele>
        <time>2019-02-17T21:04:26.599Z</time>
      </trkpt>
      <trkpt lat="46.71588" lon="-0.11542">
        <ele>165</ele>
        <time>2019-02-17T21:04:27.243Z</time>
      </trkpt>
      <trkpt lat="46.71598" lon="-0.11584">
        <ele>165</ele>
        <time>2019-02-17T21:04:27.854Z</time>
      </trkpt>
      <trkpt lat="46.71602" lon="-0.11607">
        <ele>165</ele>
        <time>2019-02-17T21:04:28.180Z</time>
      </trkpt>
      <trkpt lat="46.71601" lon="-0.11628">
        <ele>165</ele>
        <time>2019-02-17T21:04:28.469Z</time>
      </trkpt>
      <trkpt lat="46.71595" lon="-0.11754">
        <ele>165</ele>
        <time>2019-02-17T21:04:30.204Z</time>
      </trkpt>
      <trkpt lat="46.71592" lon="-0.11826">
        <ele>165</ele>
        <time>2019-02-17T21:04:31.195Z</time>
      </trkpt>
      <trkpt lat="46.71583" lon="-0.11873">
        <ele>165</ele>
        <time>2019-02-17T21:04:31.865Z</time>
      </trkpt>
      <trkpt lat="46.71572" lon="-0.1191">
        <ele>164.6</ele>
        <time>2019-02-17T21:04:32.419Z</time>
      </trkpt>
      <trkpt lat="46.71541" lon="-0.12004">
        <ele>164.4</ele>
        <time>2019-02-17T21:04:33.852Z</time>
      </trkpt>
      <trkpt lat="46.71537" lon="-0.12027">
        <ele>164</ele>
        <time>2019-02-17T21:04:34.178Z</time>
      </trkpt>
      <trkpt lat="46.71534" lon="-0.12075">
        <ele>164</ele>
        <time>2019-02-17T21:04:34.840Z</time>
      </trkpt>
      <trkpt lat="46.71531" lon="-0.12169">
        <ele>163.8</ele>
        <time>2019-02-17T21:04:36.133Z</time>
      </trkpt>
      <trkpt lat="46.71528" lon="-0.12194">
        <ele>163</ele>
        <time>2019-02-17T21:04:36.482Z</time>
      </trkpt>
      <trkpt lat="46.71524" lon="-0.12212">
        <ele>163</ele>
        <time>2019-02-17T21:04:36.742Z</time>
      </trkpt>
      <trkpt lat="46.71503" lon="-0.12275">
        <ele>162.1</ele>
        <time>2019-02-17T21:04:37.704Z</time>
      </trkpt>
      <trkpt lat="46.71489" lon="-0.12326">
        <ele>161.6</ele>
        <time>2019-02-17T21:04:38.459Z</time>
      </trkpt>
      <trkpt lat="46.71464" lon="-0.12449">
        <ele>159.1</ele>
        <time>2019-02-17T21:04:40.222Z</time>
      </trkpt>
      <trkpt lat="46.71458" lon="-0.12493">
        <ele>157</ele>
        <time>2019-02-17T21:04:40.838Z</time>
      </trkpt>
      <trkpt lat="46.71453" lon="-0.12517">
        <ele>156.1</ele>
        <time>2019-02-17T21:04:41.183Z</time>
      </trkpt>
      <trkpt lat="46.71444" lon="-0.1254">
        <ele>155.6</ele>
        <time>2019-02-17T21:04:41.547Z</time>
      </trkpt>
      <trkpt lat="46.71428" lon="-0.12574">
        <ele>154.9</ele>
        <time>2019-02-17T21:04:42.114Z</time>
      </trkpt>
      <trkpt lat="46.71425" lon="-0.12588">
        <ele>154.5</ele>
        <time>2019-02-17T21:04:42.316Z</time>
      </trkpt>
      <trkpt lat="46.71421" lon="-0.12634">
        <ele>153.1</ele>
        <time>2019-02-17T21:04:42.953Z</time>
      </trkpt>
      <trkpt lat="46.71415" lon="-0.12734">
        <ele>150.2</ele>
        <time>2019-02-17T21:04:44.332Z</time>
      </trkpt>
      <trkpt lat="46.71415" lon="-0.12756">
        <ele>148.9</ele>
        <time>2019-02-17T21:04:44.634Z</time>
      </trkpt>
      <trkpt lat="46.71421" lon="-0.1279">
        <ele>147.4</ele>
        <time>2019-02-17T21:04:45.116Z</time>
      </trkpt>
      <trkpt lat="46.71436" lon="-0.1285">
        <ele>144.5</ele>
        <time>2019-02-17T21:04:45.993Z</time>
      </trkpt>
      <trkpt lat="46.71453" lon="-0.12928">
        <ele>141.4</ele>
        <time>2019-02-17T21:04:47.116Z</time>
      </trkpt>
      <trkpt lat="46.71455" lon="-0.12936">
        <ele>141.2</ele>
        <time>2019-02-17T21:04:47.235Z</time>
      </trkpt>
      <trkpt lat="46.71461" lon="-0.12961">
        <ele>140.2</ele>
        <time>2019-02-17T21:04:47.599Z</time>
      </trkpt>
      <trkpt lat="46.71464" lon="-0.12969">
        <ele>139.9</ele>
        <time>2019-02-17T21:04:47.724Z</time>
      </trkpt>
      <trkpt lat="46.71455" lon="-0.12964">
        <ele>139.9</ele>
        <time>2019-02-17T21:04:47.917Z</time>
      </trkpt>
      <trkpt lat="46.71435" lon="-0.12955">
        <ele>140.4</ele>
        <time>2019-02-17T21:04:48.336Z</time>
      </trkpt>
      <trkpt lat="46.71398" lon="-0.12945">
        <ele>141</ele>
        <time>2019-02-17T21:04:49.090Z</time>
      </trkpt>
      <trkpt lat="46.7136" lon="-0.12934">
        <ele>141.3</ele>
        <time>2019-02-17T21:04:49.866Z</time>
      </trkpt>
      <trkpt lat="46.71335" lon="-0.12932">
        <ele>140.5</ele>
        <time>2019-02-17T21:04:50.368Z</time>
      </trkpt>
      <trkpt lat="46.71311" lon="-0.12933">
        <ele>139.9</ele>
        <time>2019-02-17T21:04:50.849Z</time>
      </trkpt>
      <trkpt lat="46.71306" lon="-0.12943">
        <ele>139.1</ele>
        <time>2019-02-17T21:04:51.019Z</time>
      </trkpt>
      <trkpt lat="46.71284" lon="-0.12986">
        <ele>136.8</ele>
        <time>2019-02-17T21:04:51.756Z</time>
      </trkpt>
      <trkpt lat="46.71261" lon="-0.13047">
        <ele>134</ele>
        <time>2019-02-17T21:04:52.713Z</time>
      </trkpt>
      <trkpt lat="46.71231" lon="-0.13151">
        <ele>130.3</ele>
        <time>2019-02-17T21:04:54.263Z</time>
      </trkpt>
      <trkpt lat="46.71224" lon="-0.13185">
        <ele>128.4</ele>
        <time>2019-02-17T21:04:54.751Z</time>
      </trkpt>
      <trkpt lat="46.71226" lon="-0.13209">
        <ele>127.6</ele>
        <time>2019-02-17T21:04:55.083Z</time>
      </trkpt>
      <trkpt lat="46.7122" lon="-0.13261">
        <ele>125.6</ele>
        <time>2019-02-17T21:04:55.808Z</time>
      </trkpt>
      <trkpt lat="46.71214" lon="-0.13351">
        <ele>123.5</ele>
        <time>2019-02-17T21:04:57.048Z</time>
      </trkpt>
      <trkpt lat="46.71212" lon="-0.13372">
        <ele>124</ele>
        <time>2019-02-17T21:04:57.341Z</time>
      </trkpt>
      <trkpt lat="46.71221" lon="-0.13376">
        <ele>123.6</ele>
        <time>2019-02-17T21:04:57.530Z</time>
      </trkpt>
      <trkpt lat="46.71264" lon="-0.13398">
        <ele>121.5</ele>
        <time>2019-02-17T21:04:58.443Z</time>
      </trkpt>
      <trkpt lat="46.71304" lon="-0.13427">
        <ele>120.8</ele>
        <time>2019-02-17T21:04:59.338Z</time>
      </trkpt>
      <trkpt lat="46.71316" lon="-0.13442">
        <ele>120.7</ele>
        <time>2019-02-17T21:04:59.655Z</time>
      </trkpt>
      <trkpt lat="46.7132" lon="-0.1345">
        <ele>120.7</ele>
        <time>2019-02-17T21:04:59.791Z</time>
      </trkpt>
      <trkpt lat="46.71326" lon="-0.13453">
        <ele>120.3</ele>
        <time>2019-02-17T21:04:59.918Z</time>
      </trkpt>
      <trkpt lat="46.71336" lon="-0.13459">
        <ele>119.8</ele>
        <time>2019-02-17T21:05:00.135Z</time>
      </trkpt>
      <trkpt lat="46.71362" lon="-0.13472">
        <ele>117.9</ele>
        <time>2019-02-17T21:05:00.686Z</time>
      </trkpt>
      <trkpt lat="46.71412" lon="-0.13495">
        <ele>116.6</ele>
        <time>2019-02-17T21:05:01.737Z</time>
      </trkpt>
      <trkpt lat="46.71453" lon="-0.1351">
        <ele>115.4</ele>
        <time>2019-02-17T21:05:02.584Z</time>
      </trkpt>
      <trkpt lat="46.71464" lon="-0.13514">
        <ele>115.5</ele>
        <time>2019-02-17T21:05:02.811Z</time>
      </trkpt>
      <trkpt lat="46.7147" lon="-0.13514">
        <ele>115.5</ele>
        <time>2019-02-17T21:05:02.931Z</time>
      </trkpt>
      <trkpt lat="46.71473" lon="-0.13519">
        <ele>115.7</ele>
        <time>2019-02-17T21:05:03.022Z</time>
      </trkpt>
      <trkpt lat="46.7151" lon="-0.13543">
        <ele>116.4</ele>
        <time>2019-02-17T21:05:03.837Z</time>
      </trkpt>
      <trkpt lat="46.71519" lon="-0.13548">
        <ele>116.7</ele>
        <time>2019-02-17T21:05:04.026Z</time>
      </trkpt>
      <trkpt lat="46.71525" lon="-0.13555">
        <ele>117.1</ele>
        <time>2019-02-17T21:05:04.180Z</time>
      </trkpt>
      <trkpt lat="46.71527" lon="-0.13562">
        <ele>117.3</ele>
        <time>2019-02-17T21:05:04.284Z</time>
      </trkpt>
      <trkpt lat="46.71528" lon="-0.13565">
        <ele>117.3</ele>
        <time>2019-02-17T21:05:04.330Z</time>
      </trkpt>
      <trkpt lat="46.71526" lon="-0.13581">
        <ele>118</ele>
        <time>2019-02-17T21:05:04.553Z</time>
      </trkpt>
      <trkpt lat="46.71516" lon="-0.13603">
        <ele>120</ele>
        <time>2019-02-17T21:05:04.916Z</time>
      </trkpt>
      <trkpt lat="46.71493" lon="-0.13641">
        <ele>122.3</ele>
        <time>2019-02-17T21:05:05.612Z</time>
      </trkpt>
      <trkpt lat="46.71459" lon="-0.1369">
        <ele>124.8</ele>
        <time>2019-02-17T21:05:06.570Z</time>
      </trkpt>
      <trkpt lat="46.71437" lon="-0.1373">
        <ele>124.8</ele>
        <time>2019-02-17T21:05:07.275Z</time>
      </trkpt>
      <trkpt lat="46.7141" lon="-0.13775">
        <ele>124.1</ele>
        <time>2019-02-17T21:05:08.097Z</time>
      </trkpt>
      <trkpt lat="46.71399" lon="-0.1379">
        <ele>123.8</ele>
        <time>2019-02-17T21:05:08.399Z</time>
      </trkpt>
      <trkpt lat="46.71382" lon="-0.13817">
        <ele>123.9</ele>
        <time>2019-02-17T21:05:08.903Z</time>
      </trkpt>
      <trkpt lat="46.71356" lon="-0.13886">
        <ele>124.5</ele>
        <time>2019-02-17T21:05:09.985Z</time>
      </trkpt>
      <trkpt lat="46.71329" lon="-0.13968">
        <ele>124.2</ele>
        <time>2019-02-17T21:05:11.235Z</time>
      </trkpt>
      <trkpt lat="46.71301" lon="-0.14038">
        <ele>125.8</ele>
        <time>2019-02-17T21:05:12.349Z</time>
      </trkpt>
      <trkpt lat="46.71282" lon="-0.14081">
        <ele>127.7</ele>
        <time>2019-02-17T21:05:13.052Z</time>
      </trkpt>
      <trkpt lat="46.71278" lon="-0.14094">
        <ele>127.6</ele>
        <time>2019-02-17T21:05:13.248Z</time>
      </trkpt>
      <trkpt lat="46.7129" lon="-0.14114">
        <ele>126.4</ele>
        <time>2019-02-17T21:05:13.613Z</time>
      </trkpt>
      <trkpt lat="46.71287" lon="-0.14123">
        <ele>126</ele>
        <time>2019-02-17T21:05:13.750Z</time>
      </trkpt>
      <trkpt lat="46.71247" lon="-0.1433">
        <ele>119.1</ele>
        <time>2019-02-17T21:05:16.705Z</time>
      </trkpt>
      <trkpt lat="46.7124" lon="-0.1436">
        <ele>118.4</ele>
        <time>2019-02-17T21:05:17.140Z</time>
      </trkpt>
      <trkpt lat="46.71265" lon="-0.14387">
        <ele>115.1</ele>
        <time>2019-02-17T21:05:17.763Z</time>
      </trkpt>
      <trkpt lat="46.71271" lon="-0.14392">
        <ele>114.3</ele>
        <time>2019-02-17T21:05:17.901Z</time>
      </trkpt>
      <trkpt lat="46.71278" lon="-0.14393">
        <ele>113.7</ele>
        <time>2019-02-17T21:05:18.042Z</time>
      </trkpt>
      <trkpt lat="46.7129" lon="-0.14392">
        <ele>113.8</ele>
        <time>2019-02-17T21:05:18.283Z</time>
      </trkpt>
      <trkpt lat="46.71301" lon="-0.14393">
        <ele>113.7</ele>
        <time>2019-02-17T21:05:18.504Z</time>
      </trkpt>
      <trkpt lat="46.71308" lon="-0.14398">
        <ele>113.4</ele>
        <time>2019-02-17T21:05:18.660Z</time>
      </trkpt>
      <trkpt lat="46.71317" lon="-0.14413">
        <ele>112.6</ele>
        <time>2019-02-17T21:05:18.934Z</time>
      </trkpt>
      <trkpt lat="46.71338" lon="-0.14449">
        <ele>112</ele>
        <time>2019-02-17T21:05:19.583Z</time>
      </trkpt>
      <trkpt lat="46.71344" lon="-0.14457">
        <ele>111.9</ele>
        <time>2019-02-17T21:05:19.746Z</time>
      </trkpt>
      <trkpt lat="46.71354" lon="-0.14465">
        <ele>112</ele>
        <time>2019-02-17T21:05:19.975Z</time>
      </trkpt>
      <trkpt lat="46.7137" lon="-0.14471">
        <ele>111.7</ele>
        <time>2019-02-17T21:05:20.306Z</time>
      </trkpt>
      <trkpt lat="46.71398" lon="-0.14473">
        <ele>110.9</ele>
        <time>2019-02-17T21:05:20.868Z</time>
      </trkpt>
      <trkpt lat="46.71364" lon="-0.14518">
        <ele>106.3</ele>
        <time>2019-02-17T21:05:21.788Z</time>
      </trkpt>
      <trkpt lat="46.71329" lon="-0.1454">
        <ele>103</ele>
        <time>2019-02-17T21:05:22.552Z</time>
      </trkpt>
      <trkpt lat="46.71298" lon="-0.14571">
        <ele>100.4</ele>
        <time>2019-02-17T21:05:23.305Z</time>
      </trkpt>
      <trkpt lat="46.71287" lon="-0.14609">
        <ele>99.1</ele>
        <time>2019-02-17T21:05:23.872Z</time>
      </trkpt>
      <trkpt lat="46.71285" lon="-0.14642">
        <ele>98.2</ele>
        <time>2019-02-17T21:05:24.327Z</time>
      </trkpt>
      <trkpt lat="46.71285" lon="-0.14661">
        <ele>98.1</ele>
        <time>2019-02-17T21:05:24.588Z</time>
      </trkpt>
      <trkpt lat="46.71283" lon="-0.14673">
        <ele>97.8</ele>
        <time>2019-02-17T21:05:24.758Z</time>
      </trkpt>
      <trkpt lat="46.71252" lon="-0.14731">
        <ele>98.5</ele>
        <time>2019-02-17T21:05:25.768Z</time>
      </trkpt>
      <trkpt lat="46.71244" lon="-0.14741">
        <ele>99.5</ele>
        <time>2019-02-17T21:05:25.979Z</time>
      </trkpt>
      <trkpt lat="46.71236" lon="-0.14744">
        <ele>99.5</ele>
        <time>2019-02-17T21:05:26.145Z</time>
      </trkpt>
      <trkpt lat="46.71214" lon="-0.14753">
        <ele>100.3</ele>
        <time>2019-02-17T21:05:26.603Z</time>
      </trkpt>
      <trkpt lat="46.71207" lon="-0.14757">
        <ele>101.3</ele>
        <time>2019-02-17T21:05:26.754Z</time>
      </trkpt>
      <trkpt lat="46.71201" lon="-0.14764">
        <ele>101.9</ele>
        <time>2019-02-17T21:05:26.908Z</time>
      </trkpt>
      <trkpt lat="46.71188" lon="-0.14802">
        <ele>102.5</ele>
        <time>2019-02-17T21:05:27.492Z</time>
      </trkpt>
      <trkpt lat="46.71175" lon="-0.14843">
        <ele>105.4</ele>
        <time>2019-02-17T21:05:28.113Z</time>
      </trkpt>
      <trkpt lat="46.71158" lon="-0.14862">
        <ele>105.9</ele>
        <time>2019-02-17T21:05:28.542Z</time>
      </trkpt>
      <trkpt lat="46.71131" lon="-0.14885">
        <ele>110.9</ele>
        <time>2019-02-17T21:05:29.169Z</time>
      </trkpt>
      <trkpt lat="46.71114" lon="-0.14895">
        <ele>113.1</ele>
        <time>2019-02-17T21:05:29.536Z</time>
      </trkpt>
      <trkpt lat="46.71088" lon="-0.14915">
        <ele>114.9</ele>
        <time>2019-02-17T21:05:30.125Z</time>
      </trkpt>
      <trkpt lat="46.71074" lon="-0.14919">
        <ele>115.2</ele>
        <time>2019-02-17T21:05:30.411Z</time>
      </trkpt>
      <trkpt lat="46.71064" lon="-0.14928">
        <ele>115.9</ele>
        <time>2019-02-17T21:05:30.646Z</time>
      </trkpt>
      <trkpt lat="46.71052" lon="-0.1495">
        <ele>117.3</ele>
        <time>2019-02-17T21:05:31.032Z</time>
      </trkpt>
      <trkpt lat="46.71037" lon="-0.14984">
        <ele>118.9</ele>
        <time>2019-02-17T21:05:31.586Z</time>
      </trkpt>
      <trkpt lat="46.71035" lon="-0.14987">
        <ele>119</ele>
        <time>2019-02-17T21:05:31.644Z</time>
      </trkpt>
      <trkpt lat="46.71029" lon="-0.15001">
        <ele>120</ele>
        <time>2019-02-17T21:05:31.871Z</time>
      </trkpt>
      <trkpt lat="46.71026" lon="-0.15015">
        <ele>120</ele>
        <time>2019-02-17T21:05:32.073Z</time>
      </trkpt>
      <trkpt lat="46.71027" lon="-0.15015">
        <ele>120</ele>
        <time>2019-02-17T21:05:32.093Z</time>
      </trkpt>
      <trkpt lat="46.71023" lon="-0.15025">
        <ele>120</ele>
        <time>2019-02-17T21:05:32.252Z</time>
      </trkpt>
      <trkpt lat="46.71015" lon="-0.15036">
        <ele>119.5</ele>
        <time>2019-02-17T21:05:32.472Z</time>
      </trkpt>
      <trkpt lat="46.70941" lon="-0.15099">
        <ele>120.1</ele>
        <time>2019-02-17T21:05:34.189Z</time>
      </trkpt>
      <trkpt lat="46.70838" lon="-0.15189">
        <ele>125.5</ele>
        <time>2019-02-17T21:05:36.595Z</time>
      </trkpt>
      <trkpt lat="46.7076" lon="-0.15261">
        <ele>129.6</ele>
        <time>2019-02-17T21:05:38.445Z</time>
      </trkpt>
      <trkpt lat="46.70723" lon="-0.15291">
        <ele>131</ele>
        <time>2019-02-17T21:05:39.293Z</time>
      </trkpt>
      <trkpt lat="46.70705" lon="-0.15308">
        <ele>131.6</ele>
        <time>2019-02-17T21:05:39.723Z</time>
      </trkpt>
      <trkpt lat="46.7069" lon="-0.15333">
        <ele>132</ele>
        <time>2019-02-17T21:05:40.179Z</time>
      </trkpt>
      <trkpt lat="46.70637" lon="-0.15418">
        <ele>134.1</ele>
        <time>2019-02-17T21:05:41.758Z</time>
      </trkpt>
      <trkpt lat="46.70618" lon="-0.15438">
        <ele>134.8</ele>
        <time>2019-02-17T21:05:42.228Z</time>
      </trkpt>
      <trkpt lat="46.70604" lon="-0.1546">
        <ele>135.5</ele>
        <time>2019-02-17T21:05:42.640Z</time>
      </trkpt>
      <trkpt lat="46.70584" lon="-0.15491">
        <ele>137</ele>
        <time>2019-02-17T21:05:43.225Z</time>
      </trkpt>
      <trkpt lat="46.70583" lon="-0.15502">
        <ele>137</ele>
        <time>2019-02-17T21:05:43.377Z</time>
      </trkpt>
      <trkpt lat="46.70582" lon="-0.15506">
        <ele>137</ele>
        <time>2019-02-17T21:05:43.436Z</time>
      </trkpt>
      <trkpt lat="46.70578" lon="-0.15504">
        <ele>137.2</ele>
        <time>2019-02-17T21:05:43.521Z</time>
      </trkpt>
      <trkpt lat="46.70564" lon="-0.15503">
        <ele>137.7</ele>
        <time>2019-02-17T21:05:43.802Z</time>
      </trkpt>
      <trkpt lat="46.70549" lon="-0.15505">
        <ele>138</ele>
        <time>2019-02-17T21:05:44.104Z</time>
      </trkpt>
      <trkpt lat="46.70487" lon="-0.15534">
        <ele>140.5</ele>
        <time>2019-02-17T21:05:45.409Z</time>
      </trkpt>
      <trkpt lat="46.70413" lon="-0.15568">
        <ele>141.1</ele>
        <time>2019-02-17T21:05:46.964Z</time>
      </trkpt>
      <trkpt lat="46.704" lon="-0.15572">
        <ele>141.6</ele>
        <time>2019-02-17T21:05:47.230Z</time>
      </trkpt>
      <trkpt lat="46.70391" lon="-0.15573">
        <ele>141.9</ele>
        <time>2019-02-17T21:05:47.411Z</time>
      </trkpt>
      <trkpt lat="46.70383" lon="-0.15586">
        <ele>142.2</ele>
        <time>2019-02-17T21:05:47.651Z</time>
      </trkpt>
      <trkpt lat="46.70371" lon="-0.15601">
        <ele>142.2</ele>
        <time>2019-02-17T21:05:47.968Z</time>
      </trkpt>
      <trkpt lat="46.70326" lon="-0.15644">
        <ele>143</ele>
        <time>2019-02-17T21:05:49.046Z</time>
      </trkpt>
      <trkpt lat="46.70302" lon="-0.15675">
        <ele>143</ele>
        <time>2019-02-17T21:05:49.688Z</time>
      </trkpt>
      <trkpt lat="46.70254" lon="-0.15746">
        <ele>143</ele>
        <time>2019-02-17T21:05:51.058Z</time>
      </trkpt>
      <trkpt lat="46.70202" lon="-0.15796">
        <ele>143</ele>
        <time>2019-02-17T21:05:52.306Z</time>
      </trkpt>
      <trkpt lat="46.70184" lon="-0.15807">
        <ele>143</ele>
        <time>2019-02-17T21:05:52.697Z</time>
      </trkpt>
      <trkpt lat="46.70161" lon="-0.15818">
        <ele>142.8</ele>
        <time>2019-02-17T21:05:53.182Z</time>
      </trkpt>
      <trkpt lat="46.70137" lon="-0.1583">
        <ele>142</ele>
        <time>2019-02-17T21:05:53.690Z</time>
      </trkpt>
      <trkpt lat="46.70114" lon="-0.15847">
        <ele>142</ele>
        <time>2019-02-17T21:05:54.207Z</time>
      </trkpt>
      <trkpt lat="46.70088" lon="-0.15872">
        <ele>142.3</ele>
        <time>2019-02-17T21:05:54.831Z</time>
      </trkpt>
      <trkpt lat="46.70033" lon="-0.15934">
        <ele>142.7</ele>
        <time>2019-02-17T21:05:56.224Z</time>
      </trkpt>
      <trkpt lat="46.70006" lon="-0.15964">
        <ele>143</ele>
        <time>2019-02-17T21:05:56.904Z</time>
      </trkpt>
      <trkpt lat="46.69986" lon="-0.15994">
        <ele>143.8</ele>
        <time>2019-02-17T21:05:57.479Z</time>
      </trkpt>
      <trkpt lat="46.69949" lon="-0.16049">
        <ele>144</ele>
        <time>2019-02-17T21:05:58.538Z</time>
      </trkpt>
      <trkpt lat="46.69917" lon="-0.16087">
        <ele>145</ele>
        <time>2019-02-17T21:05:59.365Z</time>
      </trkpt>
      <trkpt lat="46.69859" lon="-0.16146">
        <ele>144.2</ele>
        <time>2019-02-17T21:06:00.782Z</time>
      </trkpt>
      <trkpt lat="46.69844" lon="-0.16163">
        <ele>144.3</ele>
        <time>2019-02-17T21:06:01.163Z</time>
      </trkpt>
      <trkpt lat="46.69835" lon="-0.16171">
        <ele>144.1</ele>
        <time>2019-02-17T21:06:01.374Z</time>
      </trkpt>
      <trkpt lat="46.69774" lon="-0.16249">
        <ele>143.8</ele>
        <time>2019-02-17T21:06:03.000Z</time>
      </trkpt>
      <trkpt lat="46.69702" lon="-0.16348">
        <ele>142.7</ele>
        <time>2019-02-17T21:06:04.983Z</time>
      </trkpt>
      <trkpt lat="46.6968" lon="-0.16379">
        <ele>142.8</ele>
        <time>2019-02-17T21:06:05.596Z</time>
      </trkpt>
      <trkpt lat="46.69669" lon="-0.16399">
        <ele>143</ele>
        <time>2019-02-17T21:06:05.948Z</time>
      </trkpt>
      <trkpt lat="46.69654" lon="-0.16431">
        <ele>143</ele>
        <time>2019-02-17T21:06:06.481Z</time>
      </trkpt>
      <trkpt lat="46.69634" lon="-0.16488">
        <ele>143.5</ele>
        <time>2019-02-17T21:06:07.361Z</time>
      </trkpt>
      <trkpt lat="46.69625" lon="-0.16522">
        <ele>143.9</ele>
        <time>2019-02-17T21:06:07.862Z</time>
      </trkpt>
      <trkpt lat="46.69618" lon="-0.16561">
        <ele>144.2</ele>
        <time>2019-02-17T21:06:08.416Z</time>
      </trkpt>
      <trkpt lat="46.696" lon="-0.16817">
        <ele>145</ele>
        <time>2019-02-17T21:06:11.953Z</time>
      </trkpt>
      <trkpt lat="46.69597" lon="-0.16835">
        <ele>145</ele>
        <time>2019-02-17T21:06:12.208Z</time>
      </trkpt>
      <trkpt lat="46.6959" lon="-0.16852">
        <ele>145.2</ele>
        <time>2019-02-17T21:06:12.481Z</time>
      </trkpt>
      <trkpt lat="46.69572" lon="-0.16907">
        <ele>145.6</ele>
        <time>2019-02-17T21:06:13.319Z</time>
      </trkpt>
      <trkpt lat="46.69564" lon="-0.16941">
        <ele>145.3</ele>
        <time>2019-02-17T21:06:13.813Z</time>
      </trkpt>
      <trkpt lat="46.69556" lon="-0.16981">
        <ele>146</ele>
        <time>2019-02-17T21:06:14.386Z</time>
      </trkpt>
      <trkpt lat="46.69548" lon="-0.17037">
        <ele>146.7</ele>
        <time>2019-02-17T21:06:15.172Z</time>
      </trkpt>
      <trkpt lat="46.69527" lon="-0.17227">
        <ele>148.2</ele>
        <time>2019-02-17T21:06:17.817Z</time>
      </trkpt>
      <trkpt lat="46.69516" lon="-0.17258">
        <ele>148.6</ele>
        <time>2019-02-17T21:06:18.297Z</time>
      </trkpt>
      <trkpt lat="46.6938" lon="-0.17672">
        <ele>149.1</ele>
        <time>2019-02-17T21:06:24.606Z</time>
      </trkpt>
      <trkpt lat="46.69372" lon="-0.17696">
        <ele>149.6</ele>
        <time>2019-02-17T21:06:24.980Z</time>
      </trkpt>
      <trkpt lat="46.69359" lon="-0.17732">
        <ele>150</ele>
        <time>2019-02-17T21:06:25.532Z</time>
      </trkpt>
      <trkpt lat="46.69319" lon="-0.17839">
        <ele>150</ele>
        <time>2019-02-17T21:06:27.207Z</time>
      </trkpt>
      <trkpt lat="46.69284" lon="-0.17985">
        <ele>150</ele>
        <time>2019-02-17T21:06:29.333Z</time>
      </trkpt>
      <trkpt lat="46.69283" lon="-0.17989">
        <ele>150</ele>
        <time>2019-02-17T21:06:29.392Z</time>
      </trkpt>
      <trkpt lat="46.6929" lon="-0.17976">
        <ele>150</ele>
        <time>2019-02-17T21:06:29.619Z</time>
      </trkpt>
      <trkpt lat="46.69365" lon="-0.17864">
        <ele>149.9</ele>
        <time>2019-02-17T21:06:31.770Z</time>
      </trkpt>
      <trkpt lat="46.69387" lon="-0.17832">
        <ele>149.1</ele>
        <time>2019-02-17T21:06:32.393Z</time>
      </trkpt>
      <trkpt lat="46.69401" lon="-0.17816">
        <ele>149</ele>
        <time>2019-02-17T21:06:32.749Z</time>
      </trkpt>
      <trkpt lat="46.69417" lon="-0.17807">
        <ele>149</ele>
        <time>2019-02-17T21:06:33.093Z</time>
      </trkpt>
      <trkpt lat="46.6944" lon="-0.17799">
        <ele>148.2</ele>
        <time>2019-02-17T21:06:33.567Z</time>
      </trkpt>
      <trkpt lat="46.69465" lon="-0.17792">
        <ele>148</ele>
        <time>2019-02-17T21:06:34.077Z</time>
      </trkpt>
      <trkpt lat="46.69497" lon="-0.17787">
        <ele>147.1</ele>
        <time>2019-02-17T21:06:34.722Z</time>
      </trkpt>
      <trkpt lat="46.6956" lon="-0.17783">
        <ele>146.7</ele>
        <time>2019-02-17T21:06:35.986Z</time>
      </trkpt>
      <trkpt lat="46.69583" lon="-0.17783">
        <ele>146</ele>
        <time>2019-02-17T21:06:36.447Z</time>
      </trkpt>
      <trkpt lat="46.69602" lon="-0.17779">
        <ele>146</ele>
        <time>2019-02-17T21:06:36.832Z</time>
      </trkpt>
      <trkpt lat="46.69622" lon="-0.17769">
        <ele>146</ele>
        <time>2019-02-17T21:06:37.256Z</time>
      </trkpt>
      <trkpt lat="46.69661" lon="-0.17741">
        <ele>145.5</ele>
        <time>2019-02-17T21:06:38.127Z</time>
      </trkpt>
      <trkpt lat="46.69768" lon="-0.17674">
        <ele>145</ele>
        <time>2019-02-17T21:06:40.461Z</time>
      </trkpt>
      <trkpt lat="46.69842" lon="-0.17625">
        <ele>144.3</ele>
        <time>2019-02-17T21:06:42.090Z</time>
      </trkpt>
      <trkpt lat="46.69889" lon="-0.17593">
        <ele>144</ele>
        <time>2019-02-17T21:06:43.129Z</time>
      </trkpt>
      <trkpt lat="46.69909" lon="-0.17583">
        <ele>144</ele>
        <time>2019-02-17T21:06:43.553Z</time>
      </trkpt>
      <trkpt lat="46.69921" lon="-0.17579">
        <ele>144</ele>
        <time>2019-02-17T21:06:43.800Z</time>
      </trkpt>
      <trkpt lat="46.69939" lon="-0.17576">
        <ele>144</ele>
        <time>2019-02-17T21:06:44.163Z</time>
      </trkpt>
      <trkpt lat="46.69972" lon="-0.17582">
        <ele>144</ele>
        <time>2019-02-17T21:06:44.829Z</time>
      </trkpt>
      <trkpt lat="46.69992" lon="-0.17583">
        <ele>144</ele>
        <time>2019-02-17T21:06:45.230Z</time>
      </trkpt>
      <trkpt lat="46.69997" lon="-0.17582">
        <ele>144</ele>
        <time>2019-02-17T21:06:45.331Z</time>
      </trkpt>
      <trkpt lat="46.70047" lon="-0.17553">
        <ele>145.1</ele>
        <time>2019-02-17T21:06:46.409Z</time>
      </trkpt>
      <trkpt lat="46.70073" lon="-0.17541">
        <ele>144.9</ele>
        <time>2019-02-17T21:06:46.955Z</time>
      </trkpt>
      <trkpt lat="46.7008" lon="-0.17541">
        <ele>144.6</ele>
        <time>2019-02-17T21:06:47.095Z</time>
      </trkpt>
      <trkpt lat="46.70086" lon="-0.17542">
        <ele>144.4</ele>
        <time>2019-02-17T21:06:47.216Z</time>
      </trkpt>
      <trkpt lat="46.70118" lon="-0.17526">
        <ele>143.8</ele>
        <time>2019-02-17T21:06:47.894Z</time>
      </trkpt>
      <trkpt lat="46.70145" lon="-0.17512">
        <ele>142.8</ele>
        <time>2019-02-17T21:06:48.468Z</time>
      </trkpt>
      <trkpt lat="46.70161" lon="-0.17508">
        <ele>142.2</ele>
        <time>2019-02-17T21:06:48.793Z</time>
      </trkpt>
      <trkpt lat="46.70185" lon="-0.17509">
        <ele>142</ele>
        <time>2019-02-17T21:06:49.274Z</time>
      </trkpt>
      <trkpt lat="46.70232" lon="-0.17516">
        <ele>141</ele>
        <time>2019-02-17T21:06:50.221Z</time>
      </trkpt>
      <trkpt lat="46.70242" lon="-0.17515">
        <ele>141</ele>
        <time>2019-02-17T21:06:50.422Z</time>
      </trkpt>
      <trkpt lat="46.70281" lon="-0.17497">
        <ele>139.9</ele>
        <time>2019-02-17T21:06:51.242Z</time>
      </trkpt>
      <trkpt lat="46.70357" lon="-0.17456">
        <ele>139</ele>
        <time>2019-02-17T21:06:52.866Z</time>
      </trkpt>
      <trkpt lat="46.70399" lon="-0.17427">
        <ele>138</ele>
        <time>2019-02-17T21:06:53.797Z</time>
      </trkpt>
      <trkpt lat="46.70447" lon="-0.17391">
        <ele>137</ele>
        <time>2019-02-17T21:06:54.879Z</time>
      </trkpt>
      <trkpt lat="46.70476" lon="-0.17373">
        <ele>136.9</ele>
        <time>2019-02-17T21:06:55.511Z</time>
      </trkpt>
      <trkpt lat="46.70512" lon="-0.17358">
        <ele>136.6</ele>
        <time>2019-02-17T21:06:56.261Z</time>
      </trkpt>
      <trkpt lat="46.70547" lon="-0.17348">
        <ele>136</ele>
        <time>2019-02-17T21:06:56.976Z</time>
      </trkpt>
      <trkpt lat="46.7058" lon="-0.17344">
        <ele>136</ele>
        <time>2019-02-17T21:06:57.640Z</time>
      </trkpt>
      <trkpt lat="46.70631" lon="-0.17345">
        <ele>136</ele>
        <time>2019-02-17T21:06:58.662Z</time>
      </trkpt>
      <trkpt lat="46.70662" lon="-0.17345">
        <ele>136</ele>
        <time>2019-02-17T21:06:59.283Z</time>
      </trkpt>
      <trkpt lat="46.70702" lon="-0.17355">
        <ele>136</ele>
        <time>2019-02-17T21:07:00.096Z</time>
      </trkpt>
      <trkpt lat="46.70728" lon="-0.17365">
        <ele>135.7</ele>
        <time>2019-02-17T21:07:00.635Z</time>
      </trkpt>
      <trkpt lat="46.70744" lon="-0.17368">
        <ele>135.2</ele>
        <time>2019-02-17T21:07:00.958Z</time>
      </trkpt>
      <trkpt lat="46.70757" lon="-0.17368">
        <ele>135.2</ele>
        <time>2019-02-17T21:07:01.219Z</time>
      </trkpt>
      <trkpt lat="46.70767" lon="-0.17365">
        <ele>135.5</ele>
        <time>2019-02-17T21:07:01.424Z</time>
      </trkpt>
      <trkpt lat="46.70778" lon="-0.17364">
        <ele>135.9</ele>
        <time>2019-02-17T21:07:01.645Z</time>
      </trkpt>
      <trkpt lat="46.70807" lon="-0.17366">
        <ele>135</ele>
        <time>2019-02-17T21:07:02.227Z</time>
      </trkpt>
      <trkpt lat="46.7083" lon="-0.17364">
        <ele>135</ele>
        <time>2019-02-17T21:07:02.689Z</time>
      </trkpt>
      <trkpt lat="46.70867" lon="-0.17352">
        <ele>134.3</ele>
        <time>2019-02-17T21:07:03.449Z</time>
      </trkpt>
      <trkpt lat="46.70907" lon="-0.17332">
        <ele>133.4</ele>
        <time>2019-02-17T21:07:04.296Z</time>
      </trkpt>
      <trkpt lat="46.70924" lon="-0.17319">
        <ele>133.4</ele>
        <time>2019-02-17T21:07:04.681Z</time>
      </trkpt>
      <trkpt lat="46.70946" lon="-0.17298">
        <ele>133.2</ele>
        <time>2019-02-17T21:07:05.208Z</time>
      </trkpt>
      <trkpt lat="46.70965" lon="-0.1727">
        <ele>133.3</ele>
        <time>2019-02-17T21:07:05.749Z</time>
      </trkpt>
      <trkpt lat="46.7099" lon="-0.17224">
        <ele>132.7</ele>
        <time>2019-02-17T21:07:06.556Z</time>
      </trkpt>
      <trkpt lat="46.70993" lon="-0.17217">
        <ele>132.6</ele>
        <time>2019-02-17T21:07:06.669Z</time>
      </trkpt>
      <trkpt lat="46.71009" lon="-0.17215">
        <ele>132.2</ele>
        <time>2019-02-17T21:07:06.991Z</time>
      </trkpt>
      <trkpt lat="46.71023" lon="-0.17211">
        <ele>132.1</ele>
        <time>2019-02-17T21:07:07.277Z</time>
      </trkpt>
      <trkpt lat="46.7105" lon="-0.17203">
        <ele>132</ele>
        <time>2019-02-17T21:07:07.829Z</time>
      </trkpt>
      <trkpt lat="46.71144" lon="-0.17209">
        <ele>134</ele>
        <time>2019-02-17T21:07:09.714Z</time>
      </trkpt>
      <trkpt lat="46.71265" lon="-0.1722">
        <ele>134.9</ele>
        <time>2019-02-17T21:07:12.143Z</time>
      </trkpt>
      <trkpt lat="46.71305" lon="-0.17218">
        <ele>134.8</ele>
        <time>2019-02-17T21:07:12.945Z</time>
      </trkpt>
      <trkpt lat="46.71362" lon="-0.17215">
        <ele>134.7</ele>
        <time>2019-02-17T21:07:14.088Z</time>
      </trkpt>
      <trkpt lat="46.71426" lon="-0.17209">
        <ele>134</ele>
        <time>2019-02-17T21:07:15.373Z</time>
      </trkpt>
      <trkpt lat="46.71454" lon="-0.17201">
        <ele>133.7</ele>
        <time>2019-02-17T21:07:15.945Z</time>
      </trkpt>
      <trkpt lat="46.71485" lon="-0.17188">
        <ele>133.8</ele>
        <time>2019-02-17T21:07:16.591Z</time>
      </trkpt>
      <trkpt lat="46.7155" lon="-0.17148">
        <ele>133.3</ele>
        <time>2019-02-17T21:07:18.005Z</time>
      </trkpt>
      <trkpt lat="46.71595" lon="-0.1712">
        <ele>133.3</ele>
        <time>2019-02-17T21:07:18.985Z</time>
      </trkpt>
      <trkpt lat="46.71631" lon="-0.17083">
        <ele>133</ele>
        <time>2019-02-17T21:07:19.868Z</time>
      </trkpt>
      <trkpt lat="46.71671" lon="-0.17049">
        <ele>131.5</ele>
        <time>2019-02-17T21:07:20.796Z</time>
      </trkpt>
      <trkpt lat="46.71709" lon="-0.1702">
        <ele>128</ele>
        <time>2019-02-17T21:07:21.655Z</time>
      </trkpt>
      <trkpt lat="46.71742" lon="-0.17004">
        <ele>125.6</ele>
        <time>2019-02-17T21:07:22.352Z</time>
      </trkpt>
      <trkpt lat="46.71763" lon="-0.17">
        <ele>124.5</ele>
        <time>2019-02-17T21:07:22.776Z</time>
      </trkpt>
      <trkpt lat="46.7178" lon="-0.17001">
        <ele>124</ele>
        <time>2019-02-17T21:07:23.117Z</time>
      </trkpt>
      <trkpt lat="46.71842" lon="-0.17">
        <ele>124</ele>
        <time>2019-02-17T21:07:24.360Z</time>
      </trkpt>
      <trkpt lat="46.71925" lon="-0.16991">
        <ele>123.7</ele>
        <time>2019-02-17T21:07:26.028Z</time>
      </trkpt>
      <trkpt lat="46.71945" lon="-0.16988">
        <ele>123.3</ele>
        <time>2019-02-17T21:07:26.431Z</time>
      </trkpt>
      <trkpt lat="46.71965" lon="-0.16992">
        <ele>124.3</ele>
        <time>2019-02-17T21:07:26.836Z</time>
      </trkpt>
      <trkpt lat="46.71983" lon="-0.17004">
        <ele>125.2</ele>
        <time>2019-02-17T21:07:27.233Z</time>
      </trkpt>
      <trkpt lat="46.71999" lon="-0.17022">
        <ele>125.8</ele>
        <time>2019-02-17T21:07:27.638Z</time>
      </trkpt>
      <trkpt lat="46.72027" lon="-0.1705">
        <ele>124.9</ele>
        <time>2019-02-17T21:07:28.318Z</time>
      </trkpt>
      <trkpt lat="46.72033" lon="-0.17052">
        <ele>125</ele>
        <time>2019-02-17T21:07:28.441Z</time>
      </trkpt>
      <trkpt lat="46.72044" lon="-0.17046">
        <ele>125</ele>
        <time>2019-02-17T21:07:28.676Z</time>
      </trkpt>
      <trkpt lat="46.72101" lon="-0.17003">
        <ele>125.4</ele>
        <time>2019-02-17T21:07:29.962Z</time>
      </trkpt>
      <trkpt lat="46.72157" lon="-0.16963">
        <ele>125.3</ele>
        <time>2019-02-17T21:07:31.212Z</time>
      </trkpt>
      <trkpt lat="46.72192" lon="-0.16927">
        <ele>123.5</ele>
        <time>2019-02-17T21:07:32.070Z</time>
      </trkpt>
      <trkpt lat="46.72257" lon="-0.16869">
        <ele>119.7</ele>
        <time>2019-02-17T21:07:33.597Z</time>
      </trkpt>
      <trkpt lat="46.72327" lon="-0.16802">
        <ele>117.9</ele>
        <time>2019-02-17T21:07:35.275Z</time>
      </trkpt>
      <trkpt lat="46.72336" lon="-0.16793">
        <ele>117.5</ele>
        <time>2019-02-17T21:07:35.498Z</time>
      </trkpt>
      <trkpt lat="46.72359" lon="-0.1677">
        <ele>117</ele>
        <time>2019-02-17T21:07:36.052Z</time>
      </trkpt>
      <trkpt lat="46.7243" lon="-0.16703">
        <ele>115.5</ele>
        <time>2019-02-17T21:07:37.747Z</time>
      </trkpt>
      <trkpt lat="46.7245" lon="-0.16675">
        <ele>115</ele>
        <time>2019-02-17T21:07:38.308Z</time>
      </trkpt>
      <trkpt lat="46.72457" lon="-0.16666">
        <ele>115</ele>
        <time>2019-02-17T21:07:38.490Z</time>
      </trkpt>
      <trkpt lat="46.72467" lon="-0.16644">
        <ele>115.7</ele>
        <time>2019-02-17T21:07:38.853Z</time>
      </trkpt>
      <trkpt lat="46.72468" lon="-0.16642">
        <ele>115.8</ele>
        <time>2019-02-17T21:07:38.890Z</time>
      </trkpt>
      <trkpt lat="46.72479" lon="-0.16627">
        <ele>117.6</ele>
        <time>2019-02-17T21:07:39.181Z</time>
      </trkpt>
      <trkpt lat="46.72499" lon="-0.16597">
        <ele>120.4</ele>
        <time>2019-02-17T21:07:39.763Z</time>
      </trkpt>
      <trkpt lat="46.72504" lon="-0.16599">
        <ele>120.5</ele>
        <time>2019-02-17T21:07:39.867Z</time>
      </trkpt>
      <trkpt lat="46.72508" lon="-0.16598">
        <ele>120.6</ele>
        <time>2019-02-17T21:07:39.948Z</time>
      </trkpt>
      <trkpt lat="46.72517" lon="-0.16592">
        <ele>120.9</ele>
        <time>2019-02-17T21:07:40.146Z</time>
      </trkpt>
      <trkpt lat="46.72527" lon="-0.16574">
        <ele>121</ele>
        <time>2019-02-17T21:07:40.464Z</time>
      </trkpt>
      <trkpt lat="46.72529" lon="-0.16561">
        <ele>121</ele>
        <time>2019-02-17T21:07:40.647Z</time>
      </trkpt>
      <trkpt lat="46.72526" lon="-0.16552">
        <ele>120.8</ele>
        <time>2019-02-17T21:07:40.784Z</time>
      </trkpt>
      <trkpt lat="46.72525" lon="-0.16551">
        <ele>120.8</ele>
        <time>2019-02-17T21:07:40.808Z</time>
      </trkpt>
      <trkpt lat="46.7253" lon="-0.16543">
        <ele>120.6</ele>
        <time>2019-02-17T21:07:40.957Z</time>
      </trkpt>
      <trkpt lat="46.72546" lon="-0.16531">
        <ele>119.6</ele>
        <time>2019-02-17T21:07:41.318Z</time>
      </trkpt>
      <trkpt lat="46.72564" lon="-0.16521">
        <ele>118.3</ele>
        <time>2019-02-17T21:07:41.704Z</time>
      </trkpt>
      <trkpt lat="46.72584" lon="-0.16497">
        <ele>116.9</ele>
        <time>2019-02-17T21:07:42.223Z</time>
      </trkpt>
      <trkpt lat="46.72593" lon="-0.16492">
        <ele>116.7</ele>
        <time>2019-02-17T21:07:42.416Z</time>
      </trkpt>
      <trkpt lat="46.72596" lon="-0.16491">
        <ele>116.7</ele>
        <time>2019-02-17T21:07:42.475Z</time>
      </trkpt>
      <trkpt lat="46.72621" lon="-0.16481">
        <ele>116.3</ele>
        <time>2019-02-17T21:07:42.997Z</time>
      </trkpt>
      <trkpt lat="46.72621" lon="-0.16478">
        <ele>116.2</ele>
        <time>2019-02-17T21:07:43.038Z</time>
      </trkpt>
      <trkpt lat="46.7262" lon="-0.16474">
        <ele>116.1</ele>
        <time>2019-02-17T21:07:43.096Z</time>
      </trkpt>
      <trkpt lat="46.72634" lon="-0.16466">
        <ele>116</ele>
        <time>2019-02-17T21:07:43.397Z</time>
      </trkpt>
      <trkpt lat="46.72675" lon="-0.16445">
        <ele>116.3</ele>
        <time>2019-02-17T21:07:44.268Z</time>
      </trkpt>
      <trkpt lat="46.72679" lon="-0.16445">
        <ele>116.5</ele>
        <time>2019-02-17T21:07:44.348Z</time>
      </trkpt>
      <trkpt lat="46.72684" lon="-0.16449">
        <ele>116.8</ele>
        <time>2019-02-17T21:07:44.462Z</time>
      </trkpt>
      <trkpt lat="46.72694" lon="-0.16474">
        <ele>118</ele>
        <time>2019-02-17T21:07:44.860Z</time>
      </trkpt>
      <trkpt lat="46.72702" lon="-0.16487">
        <ele>118.9</ele>
        <time>2019-02-17T21:07:45.100Z</time>
      </trkpt>
      <trkpt lat="46.72718" lon="-0.16502">
        <ele>119.9</ele>
        <time>2019-02-17T21:07:45.481Z</time>
      </trkpt>
      <trkpt lat="46.72747" lon="-0.16513">
        <ele>122.7</ele>
        <time>2019-02-17T21:07:46.081Z</time>
      </trkpt>
      <trkpt lat="46.72757" lon="-0.16513">
        <ele>123.3</ele>
        <time>2019-02-17T21:07:46.281Z</time>
      </trkpt>
      <trkpt lat="46.7277" lon="-0.1651">
        <ele>123.7</ele>
        <time>2019-02-17T21:07:46.545Z</time>
      </trkpt>
      <trkpt lat="46.72786" lon="-0.16509">
        <ele>124</ele>
        <time>2019-02-17T21:07:46.866Z</time>
      </trkpt>
      <trkpt lat="46.72799" lon="-0.16514">
        <ele>124</ele>
        <time>2019-02-17T21:07:47.135Z</time>
      </trkpt>
      <trkpt lat="46.72808" lon="-0.16519">
        <ele>124</ele>
        <time>2019-02-17T21:07:47.328Z</time>
      </trkpt>
      <trkpt lat="46.72805" lon="-0.16532">
        <ele>124.2</ele>
        <time>2019-02-17T21:07:47.516Z</time>
      </trkpt>
      <trkpt lat="46.72807" lon="-0.16532">
        <ele>124.1</ele>
        <time>2019-02-17T21:07:47.552Z</time>
      </trkpt>
    </trkseg>
  </trk>
</gpx>